<?xml version="1.0" encoding="UTF-8" standalone="no" ?>
<gpx xmlns="http://www.topografix.com/GPX/1/1" xmlns:xsi="http://www.w3.org/2001/XMLSchema-instance" xsi:schemaLocation="http://www.topografix.com/GPX/1/1 http://www.topografix.com/GPX/1/1/gpx.xsd" version="1.1" creator="VisuGPX - https://www.visugpx.com">
  <metadata>
    <name>rando des lavandes à TAULIGNAN</name>
    <desc><![CDATA[Taulignan et ses champs de lavandes pour le plaisir des yeux]]></desc>
  </metadata>
  <trk>
    <name><![CDATA[Sequence 1]]></name>
    <trkseg>
      <trkpt lat="44.4449" lon="4.98234">
        <ele>296</ele>
        <time>2015-06-19T06:55:29Z</time>
      </trkpt>
      <trkpt lat="44.44477" lon="4.98254">
        <ele>287</ele>
        <time>2015-06-19T06:55:36Z</time>
      </trkpt>
      <trkpt lat="44.44478" lon="4.98245">
        <ele>285</ele>
        <time>2015-06-19T06:55:47Z</time>
      </trkpt>
      <trkpt lat="44.4446" lon="4.98195">
        <ele>283</ele>
        <time>2015-06-19T06:56:06Z</time>
      </trkpt>
      <trkpt lat="44.44443" lon="4.98196">
        <ele>284</ele>
        <time>2015-06-19T06:56:14Z</time>
      </trkpt>
      <trkpt lat="44.44447" lon="4.9818">
        <ele>282</ele>
        <time>2015-06-19T06:56:26Z</time>
      </trkpt>
      <trkpt lat="44.44445" lon="4.98174">
        <ele>280</ele>
        <time>2015-06-19T06:56:35Z</time>
      </trkpt>
      <trkpt lat="44.44439" lon="4.98169">
        <ele>282</ele>
        <time>2015-06-19T06:56:44Z</time>
      </trkpt>
      <trkpt lat="44.44435" lon="4.9817">
        <ele>277</ele>
        <time>2015-06-19T06:56:53Z</time>
      </trkpt>
      <trkpt lat="44.44422" lon="4.9817">
        <ele>273</ele>
        <time>2015-06-19T06:57:04Z</time>
      </trkpt>
      <trkpt lat="44.44399" lon="4.98172">
        <ele>277</ele>
        <time>2015-06-19T06:57:25Z</time>
      </trkpt>
      <trkpt lat="44.44398" lon="4.98173">
        <ele>276</ele>
        <time>2015-06-19T06:57:28Z</time>
      </trkpt>
      <trkpt lat="44.44397" lon="4.98174">
        <ele>277</ele>
        <time>2015-06-19T06:57:37Z</time>
      </trkpt>
      <trkpt lat="44.44374" lon="4.98179">
        <ele>273</ele>
        <time>2015-06-19T06:57:54Z</time>
      </trkpt>
      <trkpt lat="44.44365" lon="4.98182">
        <ele>273</ele>
        <time>2015-06-19T06:58:07Z</time>
      </trkpt>
      <trkpt lat="44.44363" lon="4.98182">
        <ele>273</ele>
        <time>2015-06-19T06:58:16Z</time>
      </trkpt>
      <trkpt lat="44.44362" lon="4.98182">
        <ele>273</ele>
        <time>2015-06-19T06:58:19Z</time>
      </trkpt>
      <trkpt lat="44.44343" lon="4.98176">
        <ele>263</ele>
        <time>2015-06-19T06:58:30Z</time>
      </trkpt>
      <trkpt lat="44.44308" lon="4.98167">
        <ele>261</ele>
        <time>2015-06-19T06:58:48Z</time>
      </trkpt>
      <trkpt lat="44.44298" lon="4.98152">
        <ele>263</ele>
        <time>2015-06-19T06:58:58Z</time>
      </trkpt>
      <trkpt lat="44.44295" lon="4.98149">
        <ele>264</ele>
        <time>2015-06-19T06:59:03Z</time>
      </trkpt>
      <trkpt lat="44.44276" lon="4.98138">
        <ele>267</ele>
        <time>2015-06-19T06:59:21Z</time>
      </trkpt>
      <trkpt lat="44.44269" lon="4.9813">
        <ele>271</ele>
        <time>2015-06-19T06:59:29Z</time>
      </trkpt>
      <trkpt lat="44.44258" lon="4.98112">
        <ele>274</ele>
        <time>2015-06-19T06:59:43Z</time>
      </trkpt>
      <trkpt lat="44.44257" lon="4.98109">
        <ele>275</ele>
        <time>2015-06-19T06:59:47Z</time>
      </trkpt>
      <trkpt lat="44.44246" lon="4.98091">
        <ele>272</ele>
        <time>2015-06-19T07:00:03Z</time>
      </trkpt>
      <trkpt lat="44.44241" lon="4.98078">
        <ele>270</ele>
        <time>2015-06-19T07:00:12Z</time>
      </trkpt>
      <trkpt lat="44.44238" lon="4.98066">
        <ele>272</ele>
        <time>2015-06-19T07:00:20Z</time>
      </trkpt>
      <trkpt lat="44.44241" lon="4.98038">
        <ele>262</ele>
        <time>2015-06-19T07:00:41Z</time>
      </trkpt>
      <trkpt lat="44.4424" lon="4.98037">
        <ele>263</ele>
        <time>2015-06-19T07:00:42Z</time>
      </trkpt>
      <trkpt lat="44.44231" lon="4.98032">
        <ele>265</ele>
        <time>2015-06-19T07:00:53Z</time>
      </trkpt>
      <trkpt lat="44.44221" lon="4.9804">
        <ele>266</ele>
        <time>2015-06-19T07:01:06Z</time>
      </trkpt>
      <trkpt lat="44.44206" lon="4.98058">
        <ele>267</ele>
        <time>2015-06-19T07:01:25Z</time>
      </trkpt>
      <trkpt lat="44.44201" lon="4.98066">
        <ele>269</ele>
        <time>2015-06-19T07:01:30Z</time>
      </trkpt>
      <trkpt lat="44.44185" lon="4.98082">
        <ele>267</ele>
        <time>2015-06-19T07:01:47Z</time>
      </trkpt>
      <trkpt lat="44.44178" lon="4.98087">
        <ele>268</ele>
        <time>2015-06-19T07:01:53Z</time>
      </trkpt>
      <trkpt lat="44.44173" lon="4.98093">
        <ele>268</ele>
        <time>2015-06-19T07:01:58Z</time>
      </trkpt>
      <trkpt lat="44.44164" lon="4.98101">
        <ele>267</ele>
        <time>2015-06-19T07:02:10Z</time>
      </trkpt>
      <trkpt lat="44.44146" lon="4.98115">
        <ele>275</ele>
        <time>2015-06-19T07:02:28Z</time>
      </trkpt>
      <trkpt lat="44.44139" lon="4.9812">
        <ele>274</ele>
        <time>2015-06-19T07:02:38Z</time>
      </trkpt>
      <trkpt lat="44.44136" lon="4.98122">
        <ele>274</ele>
        <time>2015-06-19T07:02:42Z</time>
      </trkpt>
      <trkpt lat="44.44116" lon="4.98138">
        <ele>278</ele>
        <time>2015-06-19T07:03:01Z</time>
      </trkpt>
      <trkpt lat="44.44103" lon="4.98147">
        <ele>279</ele>
        <time>2015-06-19T07:03:14Z</time>
      </trkpt>
      <trkpt lat="44.44091" lon="4.98146">
        <ele>278</ele>
        <time>2015-06-19T07:03:25Z</time>
      </trkpt>
      <trkpt lat="44.44089" lon="4.98146">
        <ele>278</ele>
        <time>2015-06-19T07:03:26Z</time>
      </trkpt>
      <trkpt lat="44.44077" lon="4.98141">
        <ele>277</ele>
        <time>2015-06-19T07:03:37Z</time>
      </trkpt>
      <trkpt lat="44.44059" lon="4.98145">
        <ele>272</ele>
        <time>2015-06-19T07:03:53Z</time>
      </trkpt>
      <trkpt lat="44.44051" lon="4.98145">
        <ele>277</ele>
        <time>2015-06-19T07:04:01Z</time>
      </trkpt>
      <trkpt lat="44.44032" lon="4.98144">
        <ele>278</ele>
        <time>2015-06-19T07:04:17Z</time>
      </trkpt>
      <trkpt lat="44.44028" lon="4.98145">
        <ele>277</ele>
        <time>2015-06-19T07:04:21Z</time>
      </trkpt>
      <trkpt lat="44.44017" lon="4.98149">
        <ele>281</ele>
        <time>2015-06-19T07:04:33Z</time>
      </trkpt>
      <trkpt lat="44.43994" lon="4.98155">
        <ele>284</ele>
        <time>2015-06-19T07:04:52Z</time>
      </trkpt>
      <trkpt lat="44.43992" lon="4.98155">
        <ele>284</ele>
        <time>2015-06-19T07:04:54Z</time>
      </trkpt>
      <trkpt lat="44.43978" lon="4.98158">
        <ele>285</ele>
        <time>2015-06-19T07:05:05Z</time>
      </trkpt>
      <trkpt lat="44.43965" lon="4.98161">
        <ele>285</ele>
        <time>2015-06-19T07:05:17Z</time>
      </trkpt>
      <trkpt lat="44.43951" lon="4.98162">
        <ele>286</ele>
        <time>2015-06-19T07:05:28Z</time>
      </trkpt>
      <trkpt lat="44.43938" lon="4.98163">
        <ele>286</ele>
        <time>2015-06-19T07:05:39Z</time>
      </trkpt>
      <trkpt lat="44.43919" lon="4.98166">
        <ele>286</ele>
        <time>2015-06-19T07:05:55Z</time>
      </trkpt>
      <trkpt lat="44.43912" lon="4.98166">
        <ele>287</ele>
        <time>2015-06-19T07:06:02Z</time>
      </trkpt>
      <trkpt lat="44.43901" lon="4.98167">
        <ele>286</ele>
        <time>2015-06-19T07:06:12Z</time>
      </trkpt>
      <trkpt lat="44.43888" lon="4.98167">
        <ele>286</ele>
        <time>2015-06-19T07:06:24Z</time>
      </trkpt>
      <trkpt lat="44.43877" lon="4.98167">
        <ele>286</ele>
        <time>2015-06-19T07:06:33Z</time>
      </trkpt>
      <trkpt lat="44.43865" lon="4.98168">
        <ele>287</ele>
        <time>2015-06-19T07:06:44Z</time>
      </trkpt>
      <trkpt lat="44.43851" lon="4.9817">
        <ele>287</ele>
        <time>2015-06-19T07:06:56Z</time>
      </trkpt>
      <trkpt lat="44.43834" lon="4.98171">
        <ele>288</ele>
        <time>2015-06-19T07:07:10Z</time>
      </trkpt>
      <trkpt lat="44.43824" lon="4.98172">
        <ele>288</ele>
        <time>2015-06-19T07:07:20Z</time>
      </trkpt>
      <trkpt lat="44.43803" lon="4.98176">
        <ele>289</ele>
        <time>2015-06-19T07:07:37Z</time>
      </trkpt>
      <trkpt lat="44.43801" lon="4.98176">
        <ele>289</ele>
        <time>2015-06-19T07:07:39Z</time>
      </trkpt>
      <trkpt lat="44.4379" lon="4.9818">
        <ele>289</ele>
        <time>2015-06-19T07:07:50Z</time>
      </trkpt>
      <trkpt lat="44.43784" lon="4.98177">
        <ele>285</ele>
        <time>2015-06-19T07:08:02Z</time>
      </trkpt>
      <trkpt lat="44.43784" lon="4.98176">
        <ele>286</ele>
        <time>2015-06-19T07:08:13Z</time>
      </trkpt>
      <trkpt lat="44.43784" lon="4.98176">
        <ele>286</ele>
        <time>2015-06-19T07:08:15Z</time>
      </trkpt>
      <trkpt lat="44.43784" lon="4.98176">
        <ele>286</ele>
        <time>2015-06-19T07:08:18Z</time>
      </trkpt>
      <trkpt lat="44.43784" lon="4.98176">
        <ele>286</ele>
        <time>2015-06-19T07:08:21Z</time>
      </trkpt>
      <trkpt lat="44.43784" lon="4.98176">
        <ele>286</ele>
        <time>2015-06-19T07:08:24Z</time>
      </trkpt>
      <trkpt lat="44.43784" lon="4.98176">
        <ele>286</ele>
        <time>2015-06-19T07:08:27Z</time>
      </trkpt>
      <trkpt lat="44.43788" lon="4.98176">
        <ele>286</ele>
        <time>2015-06-19T07:08:34Z</time>
      </trkpt>
      <trkpt lat="44.43793" lon="4.98175">
        <ele>284</ele>
        <time>2015-06-19T07:08:42Z</time>
      </trkpt>
      <trkpt lat="44.4379" lon="4.98177">
        <ele>285</ele>
        <time>2015-06-19T07:08:52Z</time>
      </trkpt>
      <trkpt lat="44.43779" lon="4.98189">
        <ele>287</ele>
        <time>2015-06-19T07:09:07Z</time>
      </trkpt>
      <trkpt lat="44.4378" lon="4.98191">
        <ele>286</ele>
        <time>2015-06-19T07:09:17Z</time>
      </trkpt>
      <trkpt lat="44.43778" lon="4.98191">
        <ele>286</ele>
        <time>2015-06-19T07:09:27Z</time>
      </trkpt>
      <trkpt lat="44.43775" lon="4.98193">
        <ele>286</ele>
        <time>2015-06-19T07:09:29Z</time>
      </trkpt>
      <trkpt lat="44.43757" lon="4.98207">
        <ele>287</ele>
        <time>2015-06-19T07:09:45Z</time>
      </trkpt>
      <trkpt lat="44.43746" lon="4.98213">
        <ele>287</ele>
        <time>2015-06-19T07:09:56Z</time>
      </trkpt>
      <trkpt lat="44.43734" lon="4.98223">
        <ele>286</ele>
        <time>2015-06-19T07:10:08Z</time>
      </trkpt>
      <trkpt lat="44.43727" lon="4.98234">
        <ele>286</ele>
        <time>2015-06-19T07:10:17Z</time>
      </trkpt>
      <trkpt lat="44.43714" lon="4.98249">
        <ele>288</ele>
        <time>2015-06-19T07:10:30Z</time>
      </trkpt>
      <trkpt lat="44.43704" lon="4.98258">
        <ele>287</ele>
        <time>2015-06-19T07:10:45Z</time>
      </trkpt>
      <trkpt lat="44.43704" lon="4.98256">
        <ele>286</ele>
        <time>2015-06-19T07:10:47Z</time>
      </trkpt>
      <trkpt lat="44.43705" lon="4.98256">
        <ele>286</ele>
        <time>2015-06-19T07:10:58Z</time>
      </trkpt>
      <trkpt lat="44.43705" lon="4.98256">
        <ele>285</ele>
        <time>2015-06-19T07:11:00Z</time>
      </trkpt>
      <trkpt lat="44.43704" lon="4.98256">
        <ele>286</ele>
        <time>2015-06-19T07:11:03Z</time>
      </trkpt>
      <trkpt lat="44.43704" lon="4.98256">
        <ele>286</ele>
        <time>2015-06-19T07:11:06Z</time>
      </trkpt>
      <trkpt lat="44.43704" lon="4.98256">
        <ele>286</ele>
        <time>2015-06-19T07:11:10Z</time>
      </trkpt>
      <trkpt lat="44.43704" lon="4.98256">
        <ele>284</ele>
        <time>2015-06-19T07:11:12Z</time>
      </trkpt>
      <trkpt lat="44.437" lon="4.98262">
        <ele>286</ele>
        <time>2015-06-19T07:11:19Z</time>
      </trkpt>
      <trkpt lat="44.4369" lon="4.9827">
        <ele>286</ele>
        <time>2015-06-19T07:11:28Z</time>
      </trkpt>
      <trkpt lat="44.4368" lon="4.98282">
        <ele>286</ele>
        <time>2015-06-19T07:11:37Z</time>
      </trkpt>
      <trkpt lat="44.4367" lon="4.98295">
        <ele>286</ele>
        <time>2015-06-19T07:11:49Z</time>
      </trkpt>
      <trkpt lat="44.4366" lon="4.98307">
        <ele>287</ele>
        <time>2015-06-19T07:12:00Z</time>
      </trkpt>
      <trkpt lat="44.43649" lon="4.98321">
        <ele>288</ele>
        <time>2015-06-19T07:12:11Z</time>
      </trkpt>
      <trkpt lat="44.43639" lon="4.98333">
        <ele>288</ele>
        <time>2015-06-19T07:12:23Z</time>
      </trkpt>
      <trkpt lat="44.4363" lon="4.98344">
        <ele>288</ele>
        <time>2015-06-19T07:12:32Z</time>
      </trkpt>
      <trkpt lat="44.43616" lon="4.98365">
        <ele>287</ele>
        <time>2015-06-19T07:12:50Z</time>
      </trkpt>
      <trkpt lat="44.43612" lon="4.98371">
        <ele>285</ele>
        <time>2015-06-19T07:12:54Z</time>
      </trkpt>
      <trkpt lat="44.43603" lon="4.98382">
        <ele>284</ele>
        <time>2015-06-19T07:13:05Z</time>
      </trkpt>
      <trkpt lat="44.43587" lon="4.98402">
        <ele>284</ele>
        <time>2015-06-19T07:13:25Z</time>
      </trkpt>
      <trkpt lat="44.43584" lon="4.98405">
        <ele>282</ele>
        <time>2015-06-19T07:13:27Z</time>
      </trkpt>
      <trkpt lat="44.43576" lon="4.9841">
        <ele>282</ele>
        <time>2015-06-19T07:13:38Z</time>
      </trkpt>
      <trkpt lat="44.43563" lon="4.98415">
        <ele>280</ele>
        <time>2015-06-19T07:13:50Z</time>
      </trkpt>
      <trkpt lat="44.43551" lon="4.98415">
        <ele>279</ele>
        <time>2015-06-19T07:14:01Z</time>
      </trkpt>
      <trkpt lat="44.43539" lon="4.98416">
        <ele>280</ele>
        <time>2015-06-19T07:14:11Z</time>
      </trkpt>
      <trkpt lat="44.43529" lon="4.98415">
        <ele>279</ele>
        <time>2015-06-19T07:14:23Z</time>
      </trkpt>
      <trkpt lat="44.43519" lon="4.98413">
        <ele>280</ele>
        <time>2015-06-19T07:14:33Z</time>
      </trkpt>
      <trkpt lat="44.43502" lon="4.98417">
        <ele>280</ele>
        <time>2015-06-19T07:14:44Z</time>
      </trkpt>
      <trkpt lat="44.43491" lon="4.98423">
        <ele>277</ele>
        <time>2015-06-19T07:14:56Z</time>
      </trkpt>
      <trkpt lat="44.43481" lon="4.98431">
        <ele>276</ele>
        <time>2015-06-19T07:15:07Z</time>
      </trkpt>
      <trkpt lat="44.4347" lon="4.9844">
        <ele>278</ele>
        <time>2015-06-19T07:15:19Z</time>
      </trkpt>
      <trkpt lat="44.43468" lon="4.98443">
        <ele>279</ele>
        <time>2015-06-19T07:15:28Z</time>
      </trkpt>
      <trkpt lat="44.43456" lon="4.98451">
        <ele>274</ele>
        <time>2015-06-19T07:15:40Z</time>
      </trkpt>
      <trkpt lat="44.43441" lon="4.9846">
        <ele>273</ele>
        <time>2015-06-19T07:15:53Z</time>
      </trkpt>
      <trkpt lat="44.43431" lon="4.98469">
        <ele>274</ele>
        <time>2015-06-19T07:16:01Z</time>
      </trkpt>
      <trkpt lat="44.43413" lon="4.98482">
        <ele>276</ele>
        <time>2015-06-19T07:16:15Z</time>
      </trkpt>
      <trkpt lat="44.43402" lon="4.98489">
        <ele>273</ele>
        <time>2015-06-19T07:16:23Z</time>
      </trkpt>
      <trkpt lat="44.43389" lon="4.98497">
        <ele>274</ele>
        <time>2015-06-19T07:16:34Z</time>
      </trkpt>
      <trkpt lat="44.43376" lon="4.98501">
        <ele>273</ele>
        <time>2015-06-19T07:16:46Z</time>
      </trkpt>
      <trkpt lat="44.43361" lon="4.98506">
        <ele>273</ele>
        <time>2015-06-19T07:16:57Z</time>
      </trkpt>
      <trkpt lat="44.43345" lon="4.9851">
        <ele>272</ele>
        <time>2015-06-19T07:17:10Z</time>
      </trkpt>
      <trkpt lat="44.43336" lon="4.98509">
        <ele>272</ele>
        <time>2015-06-19T07:17:20Z</time>
      </trkpt>
      <trkpt lat="44.43323" lon="4.98515">
        <ele>273</ele>
        <time>2015-06-19T07:17:29Z</time>
      </trkpt>
      <trkpt lat="44.43308" lon="4.98522">
        <ele>270</ele>
        <time>2015-06-19T07:17:41Z</time>
      </trkpt>
      <trkpt lat="44.43288" lon="4.98534">
        <ele>271</ele>
        <time>2015-06-19T07:18:01Z</time>
      </trkpt>
      <trkpt lat="44.43285" lon="4.98535">
        <ele>271</ele>
        <time>2015-06-19T07:18:03Z</time>
      </trkpt>
      <trkpt lat="44.43261" lon="4.98548">
        <ele>274</ele>
        <time>2015-06-19T07:18:21Z</time>
      </trkpt>
      <trkpt lat="44.43257" lon="4.98549">
        <ele>275</ele>
        <time>2015-06-19T07:18:24Z</time>
      </trkpt>
      <trkpt lat="44.43244" lon="4.98554">
        <ele>276</ele>
        <time>2015-06-19T07:18:35Z</time>
      </trkpt>
      <trkpt lat="44.4323" lon="4.9856">
        <ele>277</ele>
        <time>2015-06-19T07:18:47Z</time>
      </trkpt>
      <trkpt lat="44.43216" lon="4.98564">
        <ele>277</ele>
        <time>2015-06-19T07:18:58Z</time>
      </trkpt>
      <trkpt lat="44.43204" lon="4.98567">
        <ele>277</ele>
        <time>2015-06-19T07:19:10Z</time>
      </trkpt>
      <trkpt lat="44.43193" lon="4.98573">
        <ele>276</ele>
        <time>2015-06-19T07:19:19Z</time>
      </trkpt>
      <trkpt lat="44.4318" lon="4.9858">
        <ele>277</ele>
        <time>2015-06-19T07:19:31Z</time>
      </trkpt>
      <trkpt lat="44.43167" lon="4.98589">
        <ele>277</ele>
        <time>2015-06-19T07:19:41Z</time>
      </trkpt>
      <trkpt lat="44.43154" lon="4.98598">
        <ele>276</ele>
        <time>2015-06-19T07:19:53Z</time>
      </trkpt>
      <trkpt lat="44.43143" lon="4.98605">
        <ele>276</ele>
        <time>2015-06-19T07:20:05Z</time>
      </trkpt>
      <trkpt lat="44.43131" lon="4.98611">
        <ele>277</ele>
        <time>2015-06-19T07:20:14Z</time>
      </trkpt>
      <trkpt lat="44.43119" lon="4.98618">
        <ele>276</ele>
        <time>2015-06-19T07:20:25Z</time>
      </trkpt>
      <trkpt lat="44.43106" lon="4.98621">
        <ele>276</ele>
        <time>2015-06-19T07:20:36Z</time>
      </trkpt>
      <trkpt lat="44.43094" lon="4.98624">
        <ele>276</ele>
        <time>2015-06-19T07:20:48Z</time>
      </trkpt>
      <trkpt lat="44.43079" lon="4.98629">
        <ele>278</ele>
        <time>2015-06-19T07:20:58Z</time>
      </trkpt>
      <trkpt lat="44.43067" lon="4.98633">
        <ele>278</ele>
        <time>2015-06-19T07:21:09Z</time>
      </trkpt>
      <trkpt lat="44.43052" lon="4.98637">
        <ele>279</ele>
        <time>2015-06-19T07:21:22Z</time>
      </trkpt>
      <trkpt lat="44.43043" lon="4.98638">
        <ele>278</ele>
        <time>2015-06-19T07:21:31Z</time>
      </trkpt>
      <trkpt lat="44.43034" lon="4.98638">
        <ele>277</ele>
        <time>2015-06-19T07:21:43Z</time>
      </trkpt>
      <trkpt lat="44.43023" lon="4.9864">
        <ele>273</ele>
        <time>2015-06-19T07:21:53Z</time>
      </trkpt>
      <trkpt lat="44.43011" lon="4.98639">
        <ele>272</ele>
        <time>2015-06-19T07:22:04Z</time>
      </trkpt>
      <trkpt lat="44.42997" lon="4.98637">
        <ele>273</ele>
        <time>2015-06-19T07:22:15Z</time>
      </trkpt>
      <trkpt lat="44.42982" lon="4.98638">
        <ele>273</ele>
        <time>2015-06-19T07:22:26Z</time>
      </trkpt>
      <trkpt lat="44.42975" lon="4.98637">
        <ele>272</ele>
        <time>2015-06-19T07:22:37Z</time>
      </trkpt>
      <trkpt lat="44.42973" lon="4.98637">
        <ele>272</ele>
        <time>2015-06-19T07:22:49Z</time>
      </trkpt>
      <trkpt lat="44.42973" lon="4.98637">
        <ele>272</ele>
        <time>2015-06-19T07:22:51Z</time>
      </trkpt>
      <trkpt lat="44.42973" lon="4.98637">
        <ele>272</ele>
        <time>2015-06-19T07:22:54Z</time>
      </trkpt>
      <trkpt lat="44.4297" lon="4.98636">
        <ele>271</ele>
        <time>2015-06-19T07:23:00Z</time>
      </trkpt>
      <trkpt lat="44.42962" lon="4.98636">
        <ele>271</ele>
        <time>2015-06-19T07:23:09Z</time>
      </trkpt>
      <trkpt lat="44.4295" lon="4.98634">
        <ele>267</ele>
        <time>2015-06-19T07:23:20Z</time>
      </trkpt>
      <trkpt lat="44.42938" lon="4.98639">
        <ele>268</ele>
        <time>2015-06-19T07:23:32Z</time>
      </trkpt>
      <trkpt lat="44.42938" lon="4.98644">
        <ele>268</ele>
        <time>2015-06-19T07:23:42Z</time>
      </trkpt>
      <trkpt lat="44.42936" lon="4.98665">
        <ele>269</ele>
        <time>2015-06-19T07:24:00Z</time>
      </trkpt>
      <trkpt lat="44.42934" lon="4.98674">
        <ele>267</ele>
        <time>2015-06-19T07:24:05Z</time>
      </trkpt>
      <trkpt lat="44.4293" lon="4.98687">
        <ele>265</ele>
        <time>2015-06-19T07:24:14Z</time>
      </trkpt>
      <trkpt lat="44.42918" lon="4.987">
        <ele>264</ele>
        <time>2015-06-19T07:24:28Z</time>
      </trkpt>
      <trkpt lat="44.4291" lon="4.98708">
        <ele>264</ele>
        <time>2015-06-19T07:24:36Z</time>
      </trkpt>
      <trkpt lat="44.42899" lon="4.98718">
        <ele>264</ele>
        <time>2015-06-19T07:24:48Z</time>
      </trkpt>
      <trkpt lat="44.42888" lon="4.98729">
        <ele>265</ele>
        <time>2015-06-19T07:24:59Z</time>
      </trkpt>
      <trkpt lat="44.42878" lon="4.98739">
        <ele>263</ele>
        <time>2015-06-19T07:25:09Z</time>
      </trkpt>
      <trkpt lat="44.42864" lon="4.98756">
        <ele>264</ele>
        <time>2015-06-19T07:25:24Z</time>
      </trkpt>
      <trkpt lat="44.42853" lon="4.98768">
        <ele>264</ele>
        <time>2015-06-19T07:25:34Z</time>
      </trkpt>
      <trkpt lat="44.42843" lon="4.98779">
        <ele>263</ele>
        <time>2015-06-19T07:25:47Z</time>
      </trkpt>
      <trkpt lat="44.42833" lon="4.9879">
        <ele>265</ele>
        <time>2015-06-19T07:25:54Z</time>
      </trkpt>
      <trkpt lat="44.42824" lon="4.98799">
        <ele>263</ele>
        <time>2015-06-19T07:26:05Z</time>
      </trkpt>
      <trkpt lat="44.42815" lon="4.98809">
        <ele>262</ele>
        <time>2015-06-19T07:26:15Z</time>
      </trkpt>
      <trkpt lat="44.42805" lon="4.9882">
        <ele>262</ele>
        <time>2015-06-19T07:26:28Z</time>
      </trkpt>
      <trkpt lat="44.42798" lon="4.98837">
        <ele>263</ele>
        <time>2015-06-19T07:26:40Z</time>
      </trkpt>
      <trkpt lat="44.42792" lon="4.98845">
        <ele>263</ele>
        <time>2015-06-19T07:26:49Z</time>
      </trkpt>
      <trkpt lat="44.4278" lon="4.98862">
        <ele>263</ele>
        <time>2015-06-19T07:27:03Z</time>
      </trkpt>
      <trkpt lat="44.42772" lon="4.98871">
        <ele>266</ele>
        <time>2015-06-19T07:27:10Z</time>
      </trkpt>
      <trkpt lat="44.42759" lon="4.98887">
        <ele>267</ele>
        <time>2015-06-19T07:27:22Z</time>
      </trkpt>
      <trkpt lat="44.42749" lon="4.98898">
        <ele>267</ele>
        <time>2015-06-19T07:27:32Z</time>
      </trkpt>
      <trkpt lat="44.42734" lon="4.98915">
        <ele>266</ele>
        <time>2015-06-19T07:27:48Z</time>
      </trkpt>
      <trkpt lat="44.42727" lon="4.98922">
        <ele>265</ele>
        <time>2015-06-19T07:27:56Z</time>
      </trkpt>
      <trkpt lat="44.42717" lon="4.9893">
        <ele>264</ele>
        <time>2015-06-19T07:28:06Z</time>
      </trkpt>
      <trkpt lat="44.42709" lon="4.98938">
        <ele>262</ele>
        <time>2015-06-19T07:28:20Z</time>
      </trkpt>
      <trkpt lat="44.42703" lon="4.98944">
        <ele>262</ele>
        <time>2015-06-19T07:28:27Z</time>
      </trkpt>
      <trkpt lat="44.42693" lon="4.98955">
        <ele>263</ele>
        <time>2015-06-19T07:28:38Z</time>
      </trkpt>
      <trkpt lat="44.42685" lon="4.98961">
        <ele>264</ele>
        <time>2015-06-19T07:28:49Z</time>
      </trkpt>
      <trkpt lat="44.42689" lon="4.98974">
        <ele>262</ele>
        <time>2015-06-19T07:29:04Z</time>
      </trkpt>
      <trkpt lat="44.42692" lon="4.98985">
        <ele>262</ele>
        <time>2015-06-19T07:29:11Z</time>
      </trkpt>
      <trkpt lat="44.42696" lon="4.99004">
        <ele>263</ele>
        <time>2015-06-19T07:29:22Z</time>
      </trkpt>
      <trkpt lat="44.42703" lon="4.99031">
        <ele>261</ele>
        <time>2015-06-19T07:29:40Z</time>
      </trkpt>
      <trkpt lat="44.42706" lon="4.99035">
        <ele>260</ele>
        <time>2015-06-19T07:29:44Z</time>
      </trkpt>
      <trkpt lat="44.4271" lon="4.99051">
        <ele>261</ele>
        <time>2015-06-19T07:29:55Z</time>
      </trkpt>
      <trkpt lat="44.42712" lon="4.99074">
        <ele>266</ele>
        <time>2015-06-19T07:30:08Z</time>
      </trkpt>
      <trkpt lat="44.42716" lon="4.99095">
        <ele>269</ele>
        <time>2015-06-19T07:30:24Z</time>
      </trkpt>
      <trkpt lat="44.42719" lon="4.99113">
        <ele>271</ele>
        <time>2015-06-19T07:30:38Z</time>
      </trkpt>
      <trkpt lat="44.42719" lon="4.99115">
        <ele>271</ele>
        <time>2015-06-19T07:30:40Z</time>
      </trkpt>
      <trkpt lat="44.42725" lon="4.9913">
        <ele>269</ele>
        <time>2015-06-19T07:30:53Z</time>
      </trkpt>
      <trkpt lat="44.4273" lon="4.9914">
        <ele>268</ele>
        <time>2015-06-19T07:31:01Z</time>
      </trkpt>
      <trkpt lat="44.42746" lon="4.99165">
        <ele>265</ele>
        <time>2015-06-19T07:31:21Z</time>
      </trkpt>
      <trkpt lat="44.42755" lon="4.99177">
        <ele>270</ele>
        <time>2015-06-19T07:31:30Z</time>
      </trkpt>
      <trkpt lat="44.4276" lon="4.99181">
        <ele>271</ele>
        <time>2015-06-19T07:31:34Z</time>
      </trkpt>
      <trkpt lat="44.4277" lon="4.99193">
        <ele>274</ele>
        <time>2015-06-19T07:31:46Z</time>
      </trkpt>
      <trkpt lat="44.4278" lon="4.992">
        <ele>273</ele>
        <time>2015-06-19T07:31:58Z</time>
      </trkpt>
      <trkpt lat="44.42792" lon="4.99207">
        <ele>273</ele>
        <time>2015-06-19T07:32:08Z</time>
      </trkpt>
      <trkpt lat="44.42805" lon="4.99223">
        <ele>276</ele>
        <time>2015-06-19T07:32:23Z</time>
      </trkpt>
      <trkpt lat="44.42805" lon="4.99233">
        <ele>276</ele>
        <time>2015-06-19T07:32:29Z</time>
      </trkpt>
      <trkpt lat="44.42806" lon="4.99246">
        <ele>278</ele>
        <time>2015-06-19T07:32:44Z</time>
      </trkpt>
      <trkpt lat="44.42805" lon="4.99245">
        <ele>279</ele>
        <time>2015-06-19T07:32:51Z</time>
      </trkpt>
      <trkpt lat="44.42805" lon="4.99245">
        <ele>278</ele>
        <time>2015-06-19T07:32:54Z</time>
      </trkpt>
      <trkpt lat="44.42805" lon="4.99245">
        <ele>278</ele>
        <time>2015-06-19T07:32:57Z</time>
      </trkpt>
      <trkpt lat="44.42805" lon="4.99245">
        <ele>278</ele>
        <time>2015-06-19T07:33:00Z</time>
      </trkpt>
      <trkpt lat="44.42805" lon="4.99244">
        <ele>277</ele>
        <time>2015-06-19T07:33:04Z</time>
      </trkpt>
      <trkpt lat="44.42805" lon="4.99245">
        <ele>276</ele>
        <time>2015-06-19T07:33:06Z</time>
      </trkpt>
      <trkpt lat="44.42805" lon="4.99244">
        <ele>275</ele>
        <time>2015-06-19T07:33:09Z</time>
      </trkpt>
      <trkpt lat="44.42804" lon="4.99245">
        <ele>274</ele>
        <time>2015-06-19T07:33:12Z</time>
      </trkpt>
      <trkpt lat="44.42793" lon="4.99276">
        <ele>277</ele>
        <time>2015-06-19T07:33:33Z</time>
      </trkpt>
      <trkpt lat="44.42793" lon="4.99278">
        <ele>277</ele>
        <time>2015-06-19T07:33:34Z</time>
      </trkpt>
      <trkpt lat="44.42786" lon="4.9931">
        <ele>270</ele>
        <time>2015-06-19T07:33:54Z</time>
      </trkpt>
      <trkpt lat="44.42787" lon="4.99312">
        <ele>271</ele>
        <time>2015-06-19T07:33:56Z</time>
      </trkpt>
      <trkpt lat="44.42788" lon="4.99312">
        <ele>272</ele>
        <time>2015-06-19T07:34:08Z</time>
      </trkpt>
      <trkpt lat="44.42788" lon="4.99312">
        <ele>272</ele>
        <time>2015-06-19T07:34:10Z</time>
      </trkpt>
      <trkpt lat="44.42788" lon="4.99312">
        <ele>272</ele>
        <time>2015-06-19T07:34:13Z</time>
      </trkpt>
      <trkpt lat="44.42788" lon="4.99312">
        <ele>272</ele>
        <time>2015-06-19T07:34:16Z</time>
      </trkpt>
      <trkpt lat="44.42788" lon="4.99313">
        <ele>273</ele>
        <time>2015-06-19T07:34:20Z</time>
      </trkpt>
      <trkpt lat="44.42789" lon="4.99315">
        <ele>272</ele>
        <time>2015-06-19T07:34:22Z</time>
      </trkpt>
      <trkpt lat="44.42785" lon="4.99323">
        <ele>272</ele>
        <time>2015-06-19T07:34:33Z</time>
      </trkpt>
      <trkpt lat="44.42775" lon="4.99356">
        <ele>270</ele>
        <time>2015-06-19T07:34:54Z</time>
      </trkpt>
      <trkpt lat="44.42775" lon="4.99355">
        <ele>271</ele>
        <time>2015-06-19T07:34:56Z</time>
      </trkpt>
      <trkpt lat="44.42767" lon="4.99377">
        <ele>270</ele>
        <time>2015-06-19T07:35:12Z</time>
      </trkpt>
      <trkpt lat="44.42769" lon="4.99378">
        <ele>269</ele>
        <time>2015-06-19T07:35:17Z</time>
      </trkpt>
      <trkpt lat="44.42767" lon="4.99385">
        <ele>269</ele>
        <time>2015-06-19T07:35:28Z</time>
      </trkpt>
      <trkpt lat="44.42763" lon="4.99404">
        <ele>268</ele>
        <time>2015-06-19T07:35:39Z</time>
      </trkpt>
      <trkpt lat="44.42763" lon="4.99408">
        <ele>266</ele>
        <time>2015-06-19T07:35:50Z</time>
      </trkpt>
      <trkpt lat="44.42773" lon="4.9942">
        <ele>267</ele>
        <time>2015-06-19T07:36:05Z</time>
      </trkpt>
      <trkpt lat="44.42782" lon="4.99422">
        <ele>267</ele>
        <time>2015-06-19T07:36:13Z</time>
      </trkpt>
      <trkpt lat="44.42789" lon="4.99424">
        <ele>265</ele>
        <time>2015-06-19T07:36:23Z</time>
      </trkpt>
      <trkpt lat="44.42792" lon="4.99421">
        <ele>264</ele>
        <time>2015-06-19T07:36:34Z</time>
      </trkpt>
      <trkpt lat="44.42793" lon="4.99421">
        <ele>264</ele>
        <time>2015-06-19T07:36:46Z</time>
      </trkpt>
      <trkpt lat="44.42793" lon="4.99421">
        <ele>264</ele>
        <time>2015-06-19T07:36:48Z</time>
      </trkpt>
      <trkpt lat="44.42793" lon="4.99421">
        <ele>264</ele>
        <time>2015-06-19T07:36:51Z</time>
      </trkpt>
      <trkpt lat="44.42793" lon="4.99421">
        <ele>264</ele>
        <time>2015-06-19T07:36:55Z</time>
      </trkpt>
      <trkpt lat="44.42793" lon="4.99421">
        <ele>264</ele>
        <time>2015-06-19T07:36:57Z</time>
      </trkpt>
      <trkpt lat="44.42793" lon="4.99421">
        <ele>264</ele>
        <time>2015-06-19T07:37:02Z</time>
      </trkpt>
      <trkpt lat="44.42793" lon="4.99421">
        <ele>264</ele>
        <time>2015-06-19T07:37:04Z</time>
      </trkpt>
      <trkpt lat="44.42792" lon="4.99422">
        <ele>265</ele>
        <time>2015-06-19T07:37:08Z</time>
      </trkpt>
      <trkpt lat="44.42781" lon="4.99421">
        <ele>265</ele>
        <time>2015-06-19T07:37:18Z</time>
      </trkpt>
      <trkpt lat="44.42771" lon="4.99417">
        <ele>263</ele>
        <time>2015-06-19T07:37:29Z</time>
      </trkpt>
      <trkpt lat="44.42762" lon="4.9941">
        <ele>263</ele>
        <time>2015-06-19T07:37:39Z</time>
      </trkpt>
      <trkpt lat="44.42755" lon="4.99414">
        <ele>263</ele>
        <time>2015-06-19T07:37:59Z</time>
      </trkpt>
      <trkpt lat="44.42752" lon="4.99416">
        <ele>262</ele>
        <time>2015-06-19T07:38:01Z</time>
      </trkpt>
      <trkpt lat="44.42746" lon="4.99417">
        <ele>260</ele>
        <time>2015-06-19T07:38:13Z</time>
      </trkpt>
      <trkpt lat="44.42736" lon="4.99414">
        <ele>261</ele>
        <time>2015-06-19T07:38:27Z</time>
      </trkpt>
      <trkpt lat="44.4273" lon="4.99408">
        <ele>262</ele>
        <time>2015-06-19T07:38:34Z</time>
      </trkpt>
      <trkpt lat="44.42724" lon="4.99403">
        <ele>260</ele>
        <time>2015-06-19T07:38:45Z</time>
      </trkpt>
      <trkpt lat="44.42719" lon="4.994">
        <ele>260</ele>
        <time>2015-06-19T07:38:56Z</time>
      </trkpt>
      <trkpt lat="44.42719" lon="4.994">
        <ele>261</ele>
        <time>2015-06-19T07:39:07Z</time>
      </trkpt>
      <trkpt lat="44.42717" lon="4.99399">
        <ele>263</ele>
        <time>2015-06-19T07:39:11Z</time>
      </trkpt>
      <trkpt lat="44.42715" lon="4.99399">
        <ele>264</ele>
        <time>2015-06-19T07:39:24Z</time>
      </trkpt>
      <trkpt lat="44.42715" lon="4.99398">
        <ele>264</ele>
        <time>2015-06-19T07:39:27Z</time>
      </trkpt>
      <trkpt lat="44.42715" lon="4.99398">
        <ele>265</ele>
        <time>2015-06-19T07:39:30Z</time>
      </trkpt>
      <trkpt lat="44.42715" lon="4.99397">
        <ele>265</ele>
        <time>2015-06-19T07:39:33Z</time>
      </trkpt>
      <trkpt lat="44.42715" lon="4.99397">
        <ele>265</ele>
        <time>2015-06-19T07:39:36Z</time>
      </trkpt>
      <trkpt lat="44.42715" lon="4.99397">
        <ele>265</ele>
        <time>2015-06-19T07:39:39Z</time>
      </trkpt>
      <trkpt lat="44.42715" lon="4.99397">
        <ele>265</ele>
        <time>2015-06-19T07:39:42Z</time>
      </trkpt>
      <trkpt lat="44.42715" lon="4.99397">
        <ele>265</ele>
        <time>2015-06-19T07:39:45Z</time>
      </trkpt>
      <trkpt lat="44.42715" lon="4.99397">
        <ele>265</ele>
        <time>2015-06-19T07:39:50Z</time>
      </trkpt>
      <trkpt lat="44.42715" lon="4.99397">
        <ele>265</ele>
        <time>2015-06-19T07:39:51Z</time>
      </trkpt>
      <trkpt lat="44.42715" lon="4.99397">
        <ele>265</ele>
        <time>2015-06-19T07:39:54Z</time>
      </trkpt>
      <trkpt lat="44.42715" lon="4.99397">
        <ele>265</ele>
        <time>2015-06-19T07:39:57Z</time>
      </trkpt>
      <trkpt lat="44.42715" lon="4.994">
        <ele>262</ele>
        <time>2015-06-19T07:40:02Z</time>
      </trkpt>
      <trkpt lat="44.42713" lon="4.99416">
        <ele>265</ele>
        <time>2015-06-19T07:40:13Z</time>
      </trkpt>
      <trkpt lat="44.42703" lon="4.99436">
        <ele>264</ele>
        <time>2015-06-19T07:40:27Z</time>
      </trkpt>
      <trkpt lat="44.427" lon="4.99441">
        <ele>263</ele>
        <time>2015-06-19T07:40:33Z</time>
      </trkpt>
      <trkpt lat="44.427" lon="4.99441">
        <ele>263</ele>
        <time>2015-06-19T07:40:45Z</time>
      </trkpt>
      <trkpt lat="44.427" lon="4.99441">
        <ele>263</ele>
        <time>2015-06-19T07:40:49Z</time>
      </trkpt>
      <trkpt lat="44.427" lon="4.99441">
        <ele>263</ele>
        <time>2015-06-19T07:40:50Z</time>
      </trkpt>
      <trkpt lat="44.427" lon="4.99441">
        <ele>263</ele>
        <time>2015-06-19T07:40:53Z</time>
      </trkpt>
      <trkpt lat="44.427" lon="4.9944">
        <ele>263</ele>
        <time>2015-06-19T07:40:56Z</time>
      </trkpt>
      <trkpt lat="44.427" lon="4.9944">
        <ele>263</ele>
        <time>2015-06-19T07:40:59Z</time>
      </trkpt>
      <trkpt lat="44.427" lon="4.9944">
        <ele>263</ele>
        <time>2015-06-19T07:41:03Z</time>
      </trkpt>
      <trkpt lat="44.427" lon="4.9944">
        <ele>263</ele>
        <time>2015-06-19T07:41:05Z</time>
      </trkpt>
      <trkpt lat="44.427" lon="4.9944">
        <ele>263</ele>
        <time>2015-06-19T07:41:08Z</time>
      </trkpt>
      <trkpt lat="44.427" lon="4.9944">
        <ele>263</ele>
        <time>2015-06-19T07:41:11Z</time>
      </trkpt>
      <trkpt lat="44.42699" lon="4.99429">
        <ele>263</ele>
        <time>2015-06-19T07:41:20Z</time>
      </trkpt>
      <trkpt lat="44.42699" lon="4.99426">
        <ele>264</ele>
        <time>2015-06-19T07:41:26Z</time>
      </trkpt>
      <trkpt lat="44.42699" lon="4.99426">
        <ele>263</ele>
        <time>2015-06-19T07:41:38Z</time>
      </trkpt>
      <trkpt lat="44.42699" lon="4.99426">
        <ele>263</ele>
        <time>2015-06-19T07:41:39Z</time>
      </trkpt>
      <trkpt lat="44.42699" lon="4.99426">
        <ele>263</ele>
        <time>2015-06-19T07:41:42Z</time>
      </trkpt>
      <trkpt lat="44.42699" lon="4.99426">
        <ele>263</ele>
        <time>2015-06-19T07:41:45Z</time>
      </trkpt>
      <trkpt lat="44.42699" lon="4.99426">
        <ele>263</ele>
        <time>2015-06-19T07:41:48Z</time>
      </trkpt>
      <trkpt lat="44.42699" lon="4.99425">
        <ele>263</ele>
        <time>2015-06-19T07:41:51Z</time>
      </trkpt>
      <trkpt lat="44.42699" lon="4.99426">
        <ele>263</ele>
        <time>2015-06-19T07:41:54Z</time>
      </trkpt>
      <trkpt lat="44.42699" lon="4.99426">
        <ele>263</ele>
        <time>2015-06-19T07:41:58Z</time>
      </trkpt>
      <trkpt lat="44.42699" lon="4.99426">
        <ele>263</ele>
        <time>2015-06-19T07:42:00Z</time>
      </trkpt>
      <trkpt lat="44.42699" lon="4.99426">
        <ele>263</ele>
        <time>2015-06-19T07:42:03Z</time>
      </trkpt>
      <trkpt lat="44.42699" lon="4.99425">
        <ele>263</ele>
        <time>2015-06-19T07:42:07Z</time>
      </trkpt>
      <trkpt lat="44.42699" lon="4.99425">
        <ele>263</ele>
        <time>2015-06-19T07:42:10Z</time>
      </trkpt>
      <trkpt lat="44.42699" lon="4.99425">
        <ele>263</ele>
        <time>2015-06-19T07:42:12Z</time>
      </trkpt>
      <trkpt lat="44.42699" lon="4.99426">
        <ele>263</ele>
        <time>2015-06-19T07:42:15Z</time>
      </trkpt>
      <trkpt lat="44.42699" lon="4.99426">
        <ele>263</ele>
        <time>2015-06-19T07:42:18Z</time>
      </trkpt>
      <trkpt lat="44.42699" lon="4.99432">
        <ele>261</ele>
        <time>2015-06-19T07:42:24Z</time>
      </trkpt>
      <trkpt lat="44.42699" lon="4.99437">
        <ele>262</ele>
        <time>2015-06-19T07:42:32Z</time>
      </trkpt>
      <trkpt lat="44.42698" lon="4.99438">
        <ele>263</ele>
        <time>2015-06-19T07:42:43Z</time>
      </trkpt>
      <trkpt lat="44.42698" lon="4.99438">
        <ele>263</ele>
        <time>2015-06-19T07:42:46Z</time>
      </trkpt>
      <trkpt lat="44.42698" lon="4.99438">
        <ele>264</ele>
        <time>2015-06-19T07:42:49Z</time>
      </trkpt>
      <trkpt lat="44.42698" lon="4.99438">
        <ele>264</ele>
        <time>2015-06-19T07:42:52Z</time>
      </trkpt>
      <trkpt lat="44.42698" lon="4.99438">
        <ele>264</ele>
        <time>2015-06-19T07:42:55Z</time>
      </trkpt>
      <trkpt lat="44.42698" lon="4.99438">
        <ele>264</ele>
        <time>2015-06-19T07:42:58Z</time>
      </trkpt>
      <trkpt lat="44.42697" lon="4.99439">
        <ele>261</ele>
        <time>2015-06-19T07:43:01Z</time>
      </trkpt>
      <trkpt lat="44.42687" lon="4.9945">
        <ele>260</ele>
        <time>2015-06-19T07:43:13Z</time>
      </trkpt>
      <trkpt lat="44.42685" lon="4.99452">
        <ele>260</ele>
        <time>2015-06-19T07:43:31Z</time>
      </trkpt>
      <trkpt lat="44.42685" lon="4.99451">
        <ele>260</ele>
        <time>2015-06-19T07:43:35Z</time>
      </trkpt>
      <trkpt lat="44.42685" lon="4.99451">
        <ele>260</ele>
        <time>2015-06-19T07:43:39Z</time>
      </trkpt>
      <trkpt lat="44.42686" lon="4.99451">
        <ele>260</ele>
        <time>2015-06-19T07:43:43Z</time>
      </trkpt>
      <trkpt lat="44.42686" lon="4.99451">
        <ele>260</ele>
        <time>2015-06-19T07:43:44Z</time>
      </trkpt>
      <trkpt lat="44.42686" lon="4.99452">
        <ele>260</ele>
        <time>2015-06-19T07:43:50Z</time>
      </trkpt>
      <trkpt lat="44.42687" lon="4.99451">
        <ele>259</ele>
        <time>2015-06-19T07:43:53Z</time>
      </trkpt>
      <trkpt lat="44.42695" lon="4.99442">
        <ele>264</ele>
        <time>2015-06-19T07:44:04Z</time>
      </trkpt>
      <trkpt lat="44.42707" lon="4.99433">
        <ele>258</ele>
        <time>2015-06-19T07:44:21Z</time>
      </trkpt>
      <trkpt lat="44.42711" lon="4.99418">
        <ele>257</ele>
        <time>2015-06-19T07:44:35Z</time>
      </trkpt>
      <trkpt lat="44.4271" lon="4.99417">
        <ele>256</ele>
        <time>2015-06-19T07:44:37Z</time>
      </trkpt>
      <trkpt lat="44.42711" lon="4.99414">
        <ele>253</ele>
        <time>2015-06-19T07:44:48Z</time>
      </trkpt>
      <trkpt lat="44.42713" lon="4.99401">
        <ele>251</ele>
        <time>2015-06-19T07:44:59Z</time>
      </trkpt>
      <trkpt lat="44.42703" lon="4.99386">
        <ele>257</ele>
        <time>2015-06-19T07:45:16Z</time>
      </trkpt>
      <trkpt lat="44.42703" lon="4.99386">
        <ele>259</ele>
        <time>2015-06-19T07:45:22Z</time>
      </trkpt>
      <trkpt lat="44.42704" lon="4.99388">
        <ele>258</ele>
        <time>2015-06-19T07:45:25Z</time>
      </trkpt>
      <trkpt lat="44.42712" lon="4.99396">
        <ele>258</ele>
        <time>2015-06-19T07:45:35Z</time>
      </trkpt>
      <trkpt lat="44.42721" lon="4.99405">
        <ele>260</ele>
        <time>2015-06-19T07:45:46Z</time>
      </trkpt>
      <trkpt lat="44.42732" lon="4.99415">
        <ele>261</ele>
        <time>2015-06-19T07:45:59Z</time>
      </trkpt>
      <trkpt lat="44.42738" lon="4.99422">
        <ele>259</ele>
        <time>2015-06-19T07:46:08Z</time>
      </trkpt>
      <trkpt lat="44.42744" lon="4.99425">
        <ele>259</ele>
        <time>2015-06-19T07:46:19Z</time>
      </trkpt>
      <trkpt lat="44.42745" lon="4.99427">
        <ele>259</ele>
        <time>2015-06-19T07:46:30Z</time>
      </trkpt>
      <trkpt lat="44.42745" lon="4.99427">
        <ele>259</ele>
        <time>2015-06-19T07:46:33Z</time>
      </trkpt>
      <trkpt lat="44.42745" lon="4.99427">
        <ele>259</ele>
        <time>2015-06-19T07:46:36Z</time>
      </trkpt>
      <trkpt lat="44.42745" lon="4.99427">
        <ele>259</ele>
        <time>2015-06-19T07:46:39Z</time>
      </trkpt>
      <trkpt lat="44.42745" lon="4.99427">
        <ele>259</ele>
        <time>2015-06-19T07:46:42Z</time>
      </trkpt>
      <trkpt lat="44.42745" lon="4.99427">
        <ele>259</ele>
        <time>2015-06-19T07:46:47Z</time>
      </trkpt>
      <trkpt lat="44.42745" lon="4.99427">
        <ele>259</ele>
        <time>2015-06-19T07:46:48Z</time>
      </trkpt>
      <trkpt lat="44.42745" lon="4.99427">
        <ele>259</ele>
        <time>2015-06-19T07:46:51Z</time>
      </trkpt>
      <trkpt lat="44.42745" lon="4.99427">
        <ele>259</ele>
        <time>2015-06-19T07:46:54Z</time>
      </trkpt>
      <trkpt lat="44.42745" lon="4.99427">
        <ele>259</ele>
        <time>2015-06-19T07:46:59Z</time>
      </trkpt>
      <trkpt lat="44.42745" lon="4.99427">
        <ele>259</ele>
        <time>2015-06-19T07:47:00Z</time>
      </trkpt>
      <trkpt lat="44.42746" lon="4.99427">
        <ele>259</ele>
        <time>2015-06-19T07:47:03Z</time>
      </trkpt>
      <trkpt lat="44.42758" lon="4.99432">
        <ele>263</ele>
        <time>2015-06-19T07:47:15Z</time>
      </trkpt>
      <trkpt lat="44.42765" lon="4.99442">
        <ele>262</ele>
        <time>2015-06-19T07:47:25Z</time>
      </trkpt>
      <trkpt lat="44.42774" lon="4.9945">
        <ele>261</ele>
        <time>2015-06-19T07:47:36Z</time>
      </trkpt>
      <trkpt lat="44.42781" lon="4.99457">
        <ele>263</ele>
        <time>2015-06-19T07:47:47Z</time>
      </trkpt>
      <trkpt lat="44.42787" lon="4.99466">
        <ele>260</ele>
        <time>2015-06-19T07:47:58Z</time>
      </trkpt>
      <trkpt lat="44.42789" lon="4.99467">
        <ele>263</ele>
        <time>2015-06-19T07:48:09Z</time>
      </trkpt>
      <trkpt lat="44.4279" lon="4.99468">
        <ele>262</ele>
        <time>2015-06-19T07:48:12Z</time>
      </trkpt>
      <trkpt lat="44.42796" lon="4.99471">
        <ele>264</ele>
        <time>2015-06-19T07:48:23Z</time>
      </trkpt>
      <trkpt lat="44.42803" lon="4.99471">
        <ele>267</ele>
        <time>2015-06-19T07:48:34Z</time>
      </trkpt>
      <trkpt lat="44.42804" lon="4.9947">
        <ele>268</ele>
        <time>2015-06-19T07:48:45Z</time>
      </trkpt>
      <trkpt lat="44.42804" lon="4.9947">
        <ele>268</ele>
        <time>2015-06-19T07:48:48Z</time>
      </trkpt>
      <trkpt lat="44.42804" lon="4.9947">
        <ele>268</ele>
        <time>2015-06-19T07:48:51Z</time>
      </trkpt>
      <trkpt lat="44.42804" lon="4.9947">
        <ele>268</ele>
        <time>2015-06-19T07:48:54Z</time>
      </trkpt>
      <trkpt lat="44.42804" lon="4.9947">
        <ele>268</ele>
        <time>2015-06-19T07:48:59Z</time>
      </trkpt>
      <trkpt lat="44.42804" lon="4.99471">
        <ele>267</ele>
        <time>2015-06-19T07:49:00Z</time>
      </trkpt>
      <trkpt lat="44.42811" lon="4.99474">
        <ele>265</ele>
        <time>2015-06-19T07:49:11Z</time>
      </trkpt>
      <trkpt lat="44.42821" lon="4.99479">
        <ele>266</ele>
        <time>2015-06-19T07:49:22Z</time>
      </trkpt>
      <trkpt lat="44.42832" lon="4.9948">
        <ele>264</ele>
        <time>2015-06-19T07:49:33Z</time>
      </trkpt>
      <trkpt lat="44.42839" lon="4.99486">
        <ele>265</ele>
        <time>2015-06-19T07:49:44Z</time>
      </trkpt>
      <trkpt lat="44.42847" lon="4.99487">
        <ele>264</ele>
        <time>2015-06-19T07:49:55Z</time>
      </trkpt>
      <trkpt lat="44.42856" lon="4.99489">
        <ele>267</ele>
        <time>2015-06-19T07:50:06Z</time>
      </trkpt>
      <trkpt lat="44.42867" lon="4.99488">
        <ele>267</ele>
        <time>2015-06-19T07:50:17Z</time>
      </trkpt>
      <trkpt lat="44.42876" lon="4.99488">
        <ele>266</ele>
        <time>2015-06-19T07:50:28Z</time>
      </trkpt>
      <trkpt lat="44.4288" lon="4.99488">
        <ele>269</ele>
        <time>2015-06-19T07:50:39Z</time>
      </trkpt>
      <trkpt lat="44.42887" lon="4.99489">
        <ele>269</ele>
        <time>2015-06-19T07:50:50Z</time>
      </trkpt>
      <trkpt lat="44.42896" lon="4.99491">
        <ele>271</ele>
        <time>2015-06-19T07:51:01Z</time>
      </trkpt>
      <trkpt lat="44.42904" lon="4.99493">
        <ele>273</ele>
        <time>2015-06-19T07:51:12Z</time>
      </trkpt>
      <trkpt lat="44.42911" lon="4.99495">
        <ele>274</ele>
        <time>2015-06-19T07:51:24Z</time>
      </trkpt>
      <trkpt lat="44.42927" lon="4.995">
        <ele>275</ele>
        <time>2015-06-19T07:51:40Z</time>
      </trkpt>
      <trkpt lat="44.42931" lon="4.99501">
        <ele>276</ele>
        <time>2015-06-19T07:51:45Z</time>
      </trkpt>
      <trkpt lat="44.42942" lon="4.99506">
        <ele>278</ele>
        <time>2015-06-19T07:51:56Z</time>
      </trkpt>
      <trkpt lat="44.4295" lon="4.99512">
        <ele>279</ele>
        <time>2015-06-19T07:52:07Z</time>
      </trkpt>
      <trkpt lat="44.42955" lon="4.99515">
        <ele>274</ele>
        <time>2015-06-19T07:52:18Z</time>
      </trkpt>
      <trkpt lat="44.4296" lon="4.9952">
        <ele>272</ele>
        <time>2015-06-19T07:52:29Z</time>
      </trkpt>
      <trkpt lat="44.4297" lon="4.99529">
        <ele>272</ele>
        <time>2015-06-19T07:52:44Z</time>
      </trkpt>
      <trkpt lat="44.42974" lon="4.99538">
        <ele>272</ele>
        <time>2015-06-19T07:52:52Z</time>
      </trkpt>
      <trkpt lat="44.42981" lon="4.99548">
        <ele>269</ele>
        <time>2015-06-19T07:53:04Z</time>
      </trkpt>
      <trkpt lat="44.42991" lon="4.99557">
        <ele>270</ele>
        <time>2015-06-19T07:53:18Z</time>
      </trkpt>
      <trkpt lat="44.42993" lon="4.99565">
        <ele>268</ele>
        <time>2015-06-19T07:53:33Z</time>
      </trkpt>
      <trkpt lat="44.42994" lon="4.99568">
        <ele>268</ele>
        <time>2015-06-19T07:53:35Z</time>
      </trkpt>
      <trkpt lat="44.43001" lon="4.9958">
        <ele>266</ele>
        <time>2015-06-19T07:53:46Z</time>
      </trkpt>
      <trkpt lat="44.43008" lon="4.99593">
        <ele>267</ele>
        <time>2015-06-19T07:53:57Z</time>
      </trkpt>
      <trkpt lat="44.43012" lon="4.99608">
        <ele>267</ele>
        <time>2015-06-19T07:54:08Z</time>
      </trkpt>
      <trkpt lat="44.43015" lon="4.99623">
        <ele>267</ele>
        <time>2015-06-19T07:54:19Z</time>
      </trkpt>
      <trkpt lat="44.43016" lon="4.99638">
        <ele>266</ele>
        <time>2015-06-19T07:54:30Z</time>
      </trkpt>
      <trkpt lat="44.43018" lon="4.99651">
        <ele>266</ele>
        <time>2015-06-19T07:54:41Z</time>
      </trkpt>
      <trkpt lat="44.4302" lon="4.99666">
        <ele>264</ele>
        <time>2015-06-19T07:54:52Z</time>
      </trkpt>
      <trkpt lat="44.43023" lon="4.9968">
        <ele>264</ele>
        <time>2015-06-19T07:55:04Z</time>
      </trkpt>
      <trkpt lat="44.43023" lon="4.99692">
        <ele>262</ele>
        <time>2015-06-19T07:55:14Z</time>
      </trkpt>
      <trkpt lat="44.43024" lon="4.99706">
        <ele>261</ele>
        <time>2015-06-19T07:55:25Z</time>
      </trkpt>
      <trkpt lat="44.43028" lon="4.9972">
        <ele>259</ele>
        <time>2015-06-19T07:55:36Z</time>
      </trkpt>
      <trkpt lat="44.43033" lon="4.99744">
        <ele>260</ele>
        <time>2015-06-19T07:55:56Z</time>
      </trkpt>
      <trkpt lat="44.43032" lon="4.99748">
        <ele>260</ele>
        <time>2015-06-19T07:55:59Z</time>
      </trkpt>
      <trkpt lat="44.43028" lon="4.9976">
        <ele>261</ele>
        <time>2015-06-19T07:56:10Z</time>
      </trkpt>
      <trkpt lat="44.43031" lon="4.99771">
        <ele>263</ele>
        <time>2015-06-19T07:56:20Z</time>
      </trkpt>
      <trkpt lat="44.43041" lon="4.99775">
        <ele>264</ele>
        <time>2015-06-19T07:56:31Z</time>
      </trkpt>
      <trkpt lat="44.43051" lon="4.99778">
        <ele>267</ele>
        <time>2015-06-19T07:56:42Z</time>
      </trkpt>
      <trkpt lat="44.43063" lon="4.99782">
        <ele>267</ele>
        <time>2015-06-19T07:56:53Z</time>
      </trkpt>
      <trkpt lat="44.43073" lon="4.99786">
        <ele>270</ele>
        <time>2015-06-19T07:57:04Z</time>
      </trkpt>
      <trkpt lat="44.43083" lon="4.99792">
        <ele>269</ele>
        <time>2015-06-19T07:57:15Z</time>
      </trkpt>
      <trkpt lat="44.43093" lon="4.99798">
        <ele>269</ele>
        <time>2015-06-19T07:57:26Z</time>
      </trkpt>
      <trkpt lat="44.43101" lon="4.99806">
        <ele>269</ele>
        <time>2015-06-19T07:57:37Z</time>
      </trkpt>
      <trkpt lat="44.43111" lon="4.99813">
        <ele>269</ele>
        <time>2015-06-19T07:57:48Z</time>
      </trkpt>
      <trkpt lat="44.43122" lon="4.9982">
        <ele>268</ele>
        <time>2015-06-19T07:57:59Z</time>
      </trkpt>
      <trkpt lat="44.43131" lon="4.99828">
        <ele>268</ele>
        <time>2015-06-19T07:58:10Z</time>
      </trkpt>
      <trkpt lat="44.43136" lon="4.99837">
        <ele>267</ele>
        <time>2015-06-19T07:58:21Z</time>
      </trkpt>
      <trkpt lat="44.43131" lon="4.99849">
        <ele>267</ele>
        <time>2015-06-19T07:58:32Z</time>
      </trkpt>
      <trkpt lat="44.4313" lon="4.99855">
        <ele>265</ele>
        <time>2015-06-19T07:58:43Z</time>
      </trkpt>
      <trkpt lat="44.43133" lon="4.99857">
        <ele>265</ele>
        <time>2015-06-19T07:58:55Z</time>
      </trkpt>
      <trkpt lat="44.43137" lon="4.99865">
        <ele>266</ele>
        <time>2015-06-19T07:59:05Z</time>
      </trkpt>
      <trkpt lat="44.43151" lon="4.9987">
        <ele>267</ele>
        <time>2015-06-19T07:59:18Z</time>
      </trkpt>
      <trkpt lat="44.4316" lon="4.99872">
        <ele>267</ele>
        <time>2015-06-19T07:59:27Z</time>
      </trkpt>
      <trkpt lat="44.43172" lon="4.99872">
        <ele>269</ele>
        <time>2015-06-19T07:59:38Z</time>
      </trkpt>
      <trkpt lat="44.43184" lon="4.99868">
        <ele>271</ele>
        <time>2015-06-19T07:59:49Z</time>
      </trkpt>
      <trkpt lat="44.43194" lon="4.99869">
        <ele>272</ele>
        <time>2015-06-19T08:00:00Z</time>
      </trkpt>
      <trkpt lat="44.43193" lon="4.99869">
        <ele>271</ele>
        <time>2015-06-19T08:00:11Z</time>
      </trkpt>
      <trkpt lat="44.43193" lon="4.99868">
        <ele>272</ele>
        <time>2015-06-19T08:00:17Z</time>
      </trkpt>
      <trkpt lat="44.43196" lon="4.99869">
        <ele>272</ele>
        <time>2015-06-19T08:00:20Z</time>
      </trkpt>
      <trkpt lat="44.43208" lon="4.9987">
        <ele>271</ele>
        <time>2015-06-19T08:00:31Z</time>
      </trkpt>
      <trkpt lat="44.4322" lon="4.99873">
        <ele>272</ele>
        <time>2015-06-19T08:00:42Z</time>
      </trkpt>
      <trkpt lat="44.43231" lon="4.99876">
        <ele>273</ele>
        <time>2015-06-19T08:00:53Z</time>
      </trkpt>
      <trkpt lat="44.43243" lon="4.9988">
        <ele>272</ele>
        <time>2015-06-19T08:01:04Z</time>
      </trkpt>
      <trkpt lat="44.43256" lon="4.99887">
        <ele>272</ele>
        <time>2015-06-19T08:01:15Z</time>
      </trkpt>
      <trkpt lat="44.43267" lon="4.99893">
        <ele>271</ele>
        <time>2015-06-19T08:01:26Z</time>
      </trkpt>
      <trkpt lat="44.43277" lon="4.99898">
        <ele>271</ele>
        <time>2015-06-19T08:01:37Z</time>
      </trkpt>
      <trkpt lat="44.43283" lon="4.99905">
        <ele>270</ele>
        <time>2015-06-19T08:01:49Z</time>
      </trkpt>
      <trkpt lat="44.43282" lon="4.99904">
        <ele>269</ele>
        <time>2015-06-19T08:01:59Z</time>
      </trkpt>
      <trkpt lat="44.43282" lon="4.99904">
        <ele>269</ele>
        <time>2015-06-19T08:02:02Z</time>
      </trkpt>
      <trkpt lat="44.43282" lon="4.99904">
        <ele>269</ele>
        <time>2015-06-19T08:02:05Z</time>
      </trkpt>
      <trkpt lat="44.43282" lon="4.99905">
        <ele>269</ele>
        <time>2015-06-19T08:02:08Z</time>
      </trkpt>
      <trkpt lat="44.43284" lon="4.99906">
        <ele>269</ele>
        <time>2015-06-19T08:02:11Z</time>
      </trkpt>
      <trkpt lat="44.43291" lon="4.99911">
        <ele>270</ele>
        <time>2015-06-19T08:02:23Z</time>
      </trkpt>
      <trkpt lat="44.433" lon="4.99918">
        <ele>269</ele>
        <time>2015-06-19T08:02:33Z</time>
      </trkpt>
      <trkpt lat="44.43302" lon="4.99919">
        <ele>270</ele>
        <time>2015-06-19T08:02:44Z</time>
      </trkpt>
      <trkpt lat="44.43313" lon="4.99927">
        <ele>269</ele>
        <time>2015-06-19T08:02:55Z</time>
      </trkpt>
      <trkpt lat="44.43315" lon="4.99928">
        <ele>269</ele>
        <time>2015-06-19T08:03:09Z</time>
      </trkpt>
      <trkpt lat="44.43315" lon="4.99927">
        <ele>269</ele>
        <time>2015-06-19T08:03:13Z</time>
      </trkpt>
      <trkpt lat="44.43315" lon="4.99927">
        <ele>269</ele>
        <time>2015-06-19T08:03:15Z</time>
      </trkpt>
      <trkpt lat="44.43315" lon="4.99927">
        <ele>269</ele>
        <time>2015-06-19T08:03:18Z</time>
      </trkpt>
      <trkpt lat="44.43316" lon="4.99929">
        <ele>269</ele>
        <time>2015-06-19T08:03:21Z</time>
      </trkpt>
      <trkpt lat="44.43328" lon="4.9994">
        <ele>269</ele>
        <time>2015-06-19T08:03:32Z</time>
      </trkpt>
      <trkpt lat="44.43337" lon="4.99952">
        <ele>268</ele>
        <time>2015-06-19T08:03:43Z</time>
      </trkpt>
      <trkpt lat="44.43349" lon="4.99959">
        <ele>268</ele>
        <time>2015-06-19T08:03:55Z</time>
      </trkpt>
      <trkpt lat="44.43361" lon="4.9996">
        <ele>269</ele>
        <time>2015-06-19T08:04:05Z</time>
      </trkpt>
      <trkpt lat="44.43373" lon="4.99955">
        <ele>269</ele>
        <time>2015-06-19T08:04:16Z</time>
      </trkpt>
      <trkpt lat="44.43376" lon="4.99952">
        <ele>270</ele>
        <time>2015-06-19T08:04:27Z</time>
      </trkpt>
      <trkpt lat="44.43376" lon="4.99952">
        <ele>270</ele>
        <time>2015-06-19T08:04:38Z</time>
      </trkpt>
      <trkpt lat="44.43376" lon="4.99952">
        <ele>270</ele>
        <time>2015-06-19T08:04:41Z</time>
      </trkpt>
      <trkpt lat="44.43377" lon="4.99952">
        <ele>270</ele>
        <time>2015-06-19T08:04:44Z</time>
      </trkpt>
      <trkpt lat="44.43385" lon="4.99955">
        <ele>270</ele>
        <time>2015-06-19T08:04:55Z</time>
      </trkpt>
      <trkpt lat="44.43393" lon="4.99956">
        <ele>270</ele>
        <time>2015-06-19T08:05:06Z</time>
      </trkpt>
      <trkpt lat="44.43393" lon="4.99956">
        <ele>270</ele>
        <time>2015-06-19T08:05:17Z</time>
      </trkpt>
      <trkpt lat="44.43393" lon="4.99956">
        <ele>270</ele>
        <time>2015-06-19T08:05:20Z</time>
      </trkpt>
      <trkpt lat="44.43393" lon="4.99956">
        <ele>270</ele>
        <time>2015-06-19T08:05:23Z</time>
      </trkpt>
      <trkpt lat="44.43393" lon="4.99956">
        <ele>271</ele>
        <time>2015-06-19T08:05:26Z</time>
      </trkpt>
      <trkpt lat="44.43393" lon="4.99956">
        <ele>271</ele>
        <time>2015-06-19T08:05:29Z</time>
      </trkpt>
      <trkpt lat="44.43393" lon="4.99956">
        <ele>271</ele>
        <time>2015-06-19T08:05:32Z</time>
      </trkpt>
      <trkpt lat="44.43393" lon="4.99956">
        <ele>271</ele>
        <time>2015-06-19T08:05:35Z</time>
      </trkpt>
      <trkpt lat="44.43393" lon="4.99956">
        <ele>271</ele>
        <time>2015-06-19T08:05:38Z</time>
      </trkpt>
      <trkpt lat="44.43393" lon="4.99956">
        <ele>271</ele>
        <time>2015-06-19T08:05:41Z</time>
      </trkpt>
      <trkpt lat="44.43393" lon="4.99956">
        <ele>271</ele>
        <time>2015-06-19T08:05:44Z</time>
      </trkpt>
      <trkpt lat="44.43393" lon="4.99956">
        <ele>271</ele>
        <time>2015-06-19T08:05:47Z</time>
      </trkpt>
      <trkpt lat="44.43393" lon="4.99956">
        <ele>271</ele>
        <time>2015-06-19T08:05:50Z</time>
      </trkpt>
      <trkpt lat="44.43393" lon="4.99956">
        <ele>271</ele>
        <time>2015-06-19T08:05:53Z</time>
      </trkpt>
      <trkpt lat="44.43393" lon="4.99956">
        <ele>271</ele>
        <time>2015-06-19T08:05:56Z</time>
      </trkpt>
      <trkpt lat="44.43393" lon="4.99956">
        <ele>271</ele>
        <time>2015-06-19T08:05:59Z</time>
      </trkpt>
      <trkpt lat="44.43393" lon="4.99956">
        <ele>271</ele>
        <time>2015-06-19T08:06:02Z</time>
      </trkpt>
      <trkpt lat="44.43393" lon="4.99956">
        <ele>271</ele>
        <time>2015-06-19T08:06:05Z</time>
      </trkpt>
      <trkpt lat="44.43393" lon="4.99957">
        <ele>271</ele>
        <time>2015-06-19T08:06:08Z</time>
      </trkpt>
      <trkpt lat="44.43403" lon="4.9997">
        <ele>272</ele>
        <time>2015-06-19T08:06:20Z</time>
      </trkpt>
      <trkpt lat="44.4341" lon="4.99983">
        <ele>272</ele>
        <time>2015-06-19T08:06:30Z</time>
      </trkpt>
      <trkpt lat="44.43416" lon="4.99991">
        <ele>272</ele>
        <time>2015-06-19T08:06:41Z</time>
      </trkpt>
      <trkpt lat="44.43416" lon="4.99991">
        <ele>271</ele>
        <time>2015-06-19T08:06:52Z</time>
      </trkpt>
      <trkpt lat="44.43416" lon="4.99991">
        <ele>271</ele>
        <time>2015-06-19T08:06:55Z</time>
      </trkpt>
      <trkpt lat="44.43417" lon="4.99993">
        <ele>271</ele>
        <time>2015-06-19T08:06:58Z</time>
      </trkpt>
      <trkpt lat="44.43423" lon="5.00005">
        <ele>272</ele>
        <time>2015-06-19T08:07:09Z</time>
      </trkpt>
      <trkpt lat="44.43425" lon="5.00009">
        <ele>271</ele>
        <time>2015-06-19T08:07:20Z</time>
      </trkpt>
      <trkpt lat="44.43428" lon="5.00012">
        <ele>271</ele>
        <time>2015-06-19T08:07:31Z</time>
      </trkpt>
      <trkpt lat="44.43431" lon="5.0002">
        <ele>271</ele>
        <time>2015-06-19T08:07:42Z</time>
      </trkpt>
      <trkpt lat="44.43435" lon="5.00029">
        <ele>271</ele>
        <time>2015-06-19T08:07:53Z</time>
      </trkpt>
      <trkpt lat="44.43436" lon="5.00049">
        <ele>271</ele>
        <time>2015-06-19T08:08:04Z</time>
      </trkpt>
      <trkpt lat="44.43436" lon="5.00068">
        <ele>272</ele>
        <time>2015-06-19T08:08:15Z</time>
      </trkpt>
      <trkpt lat="44.43439" lon="5.00085">
        <ele>272</ele>
        <time>2015-06-19T08:08:26Z</time>
      </trkpt>
      <trkpt lat="44.43449" lon="5.00097">
        <ele>273</ele>
        <time>2015-06-19T08:08:37Z</time>
      </trkpt>
      <trkpt lat="44.43462" lon="5.001">
        <ele>274</ele>
        <time>2015-06-19T08:08:48Z</time>
      </trkpt>
      <trkpt lat="44.43473" lon="5.00096">
        <ele>273</ele>
        <time>2015-06-19T08:08:59Z</time>
      </trkpt>
      <trkpt lat="44.43484" lon="5.0009">
        <ele>274</ele>
        <time>2015-06-19T08:09:10Z</time>
      </trkpt>
      <trkpt lat="44.43496" lon="5.00085">
        <ele>273</ele>
        <time>2015-06-19T08:09:21Z</time>
      </trkpt>
      <trkpt lat="44.43509" lon="5.00083">
        <ele>274</ele>
        <time>2015-06-19T08:09:32Z</time>
      </trkpt>
      <trkpt lat="44.43522" lon="5.00083">
        <ele>274</ele>
        <time>2015-06-19T08:09:43Z</time>
      </trkpt>
      <trkpt lat="44.43536" lon="5.00083">
        <ele>275</ele>
        <time>2015-06-19T08:09:55Z</time>
      </trkpt>
      <trkpt lat="44.43549" lon="5.00084">
        <ele>276</ele>
        <time>2015-06-19T08:10:05Z</time>
      </trkpt>
      <trkpt lat="44.43563" lon="5.00085">
        <ele>276</ele>
        <time>2015-06-19T08:10:17Z</time>
      </trkpt>
      <trkpt lat="44.43575" lon="5.00088">
        <ele>276</ele>
        <time>2015-06-19T08:10:27Z</time>
      </trkpt>
      <trkpt lat="44.43594" lon="5.00095">
        <ele>278</ele>
        <time>2015-06-19T08:10:43Z</time>
      </trkpt>
      <trkpt lat="44.436" lon="5.00099">
        <ele>278</ele>
        <time>2015-06-19T08:10:49Z</time>
      </trkpt>
      <trkpt lat="44.43612" lon="5.00109">
        <ele>277</ele>
        <time>2015-06-19T08:11:00Z</time>
      </trkpt>
      <trkpt lat="44.43621" lon="5.00127">
        <ele>275</ele>
        <time>2015-06-19T08:11:11Z</time>
      </trkpt>
      <trkpt lat="44.4363" lon="5.00142">
        <ele>277</ele>
        <time>2015-06-19T08:11:22Z</time>
      </trkpt>
      <trkpt lat="44.43635" lon="5.00153">
        <ele>277</ele>
        <time>2015-06-19T08:11:33Z</time>
      </trkpt>
      <trkpt lat="44.43646" lon="5.00164">
        <ele>277</ele>
        <time>2015-06-19T08:11:47Z</time>
      </trkpt>
      <trkpt lat="44.43654" lon="5.00168">
        <ele>277</ele>
        <time>2015-06-19T08:11:58Z</time>
      </trkpt>
      <trkpt lat="44.43655" lon="5.00167">
        <ele>277</ele>
        <time>2015-06-19T08:12:09Z</time>
      </trkpt>
      <trkpt lat="44.43655" lon="5.00167">
        <ele>277</ele>
        <time>2015-06-19T08:12:12Z</time>
      </trkpt>
      <trkpt lat="44.43655" lon="5.00167">
        <ele>276</ele>
        <time>2015-06-19T08:12:15Z</time>
      </trkpt>
      <trkpt lat="44.43655" lon="5.00168">
        <ele>275</ele>
        <time>2015-06-19T08:12:18Z</time>
      </trkpt>
      <trkpt lat="44.43655" lon="5.00168">
        <ele>275</ele>
        <time>2015-06-19T08:12:21Z</time>
      </trkpt>
      <trkpt lat="44.43655" lon="5.00168">
        <ele>275</ele>
        <time>2015-06-19T08:12:24Z</time>
      </trkpt>
      <trkpt lat="44.43654" lon="5.00168">
        <ele>274</ele>
        <time>2015-06-19T08:12:27Z</time>
      </trkpt>
      <trkpt lat="44.43655" lon="5.00168">
        <ele>274</ele>
        <time>2015-06-19T08:12:30Z</time>
      </trkpt>
      <trkpt lat="44.43657" lon="5.00162">
        <ele>274</ele>
        <time>2015-06-19T08:12:41Z</time>
      </trkpt>
      <trkpt lat="44.4366" lon="5.00151">
        <ele>274</ele>
        <time>2015-06-19T08:12:52Z</time>
      </trkpt>
      <trkpt lat="44.43665" lon="5.00136">
        <ele>274</ele>
        <time>2015-06-19T08:13:04Z</time>
      </trkpt>
      <trkpt lat="44.43668" lon="5.00124">
        <ele>274</ele>
        <time>2015-06-19T08:13:14Z</time>
      </trkpt>
      <trkpt lat="44.43673" lon="5.00109">
        <ele>275</ele>
        <time>2015-06-19T08:13:25Z</time>
      </trkpt>
      <trkpt lat="44.43678" lon="5.00095">
        <ele>276</ele>
        <time>2015-06-19T08:13:36Z</time>
      </trkpt>
      <trkpt lat="44.43683" lon="5.00081">
        <ele>278</ele>
        <time>2015-06-19T08:13:47Z</time>
      </trkpt>
      <trkpt lat="44.43687" lon="5.00068">
        <ele>277</ele>
        <time>2015-06-19T08:13:58Z</time>
      </trkpt>
      <trkpt lat="44.43692" lon="5.00053">
        <ele>277</ele>
        <time>2015-06-19T08:14:09Z</time>
      </trkpt>
      <trkpt lat="44.43696" lon="5.00037">
        <ele>278</ele>
        <time>2015-06-19T08:14:20Z</time>
      </trkpt>
      <trkpt lat="44.437" lon="5.00021">
        <ele>278</ele>
        <time>2015-06-19T08:14:31Z</time>
      </trkpt>
      <trkpt lat="44.43704" lon="5.00005">
        <ele>277</ele>
        <time>2015-06-19T08:14:42Z</time>
      </trkpt>
      <trkpt lat="44.43709" lon="4.9999">
        <ele>277</ele>
        <time>2015-06-19T08:14:53Z</time>
      </trkpt>
      <trkpt lat="44.43715" lon="4.99971">
        <ele>278</ele>
        <time>2015-06-19T08:15:07Z</time>
      </trkpt>
      <trkpt lat="44.43718" lon="4.9996">
        <ele>280</ele>
        <time>2015-06-19T08:15:15Z</time>
      </trkpt>
      <trkpt lat="44.43721" lon="4.99942">
        <ele>283</ele>
        <time>2015-06-19T08:15:26Z</time>
      </trkpt>
      <trkpt lat="44.43726" lon="4.99928">
        <ele>281</ele>
        <time>2015-06-19T08:15:37Z</time>
      </trkpt>
      <trkpt lat="44.43734" lon="4.99914">
        <ele>283</ele>
        <time>2015-06-19T08:15:50Z</time>
      </trkpt>
      <trkpt lat="44.43745" lon="4.9992">
        <ele>283</ele>
        <time>2015-06-19T08:16:02Z</time>
      </trkpt>
      <trkpt lat="44.43751" lon="4.99933">
        <ele>280</ele>
        <time>2015-06-19T08:16:10Z</time>
      </trkpt>
      <trkpt lat="44.43759" lon="4.99946">
        <ele>278</ele>
        <time>2015-06-19T08:16:22Z</time>
      </trkpt>
      <trkpt lat="44.43773" lon="4.99963">
        <ele>280</ele>
        <time>2015-06-19T08:16:37Z</time>
      </trkpt>
      <trkpt lat="44.43775" lon="4.99971">
        <ele>279</ele>
        <time>2015-06-19T08:16:43Z</time>
      </trkpt>
      <trkpt lat="44.43788" lon="4.99986">
        <ele>281</ele>
        <time>2015-06-19T08:16:59Z</time>
      </trkpt>
      <trkpt lat="44.43793" lon="4.99996">
        <ele>281</ele>
        <time>2015-06-19T08:17:08Z</time>
      </trkpt>
      <trkpt lat="44.43798" lon="5.00005">
        <ele>280</ele>
        <time>2015-06-19T08:17:16Z</time>
      </trkpt>
      <trkpt lat="44.43806" lon="5.00017">
        <ele>281</ele>
        <time>2015-06-19T08:17:27Z</time>
      </trkpt>
      <trkpt lat="44.43825" lon="5.00038">
        <ele>282</ele>
        <time>2015-06-19T08:17:47Z</time>
      </trkpt>
      <trkpt lat="44.43825" lon="5.00039">
        <ele>282</ele>
        <time>2015-06-19T08:17:50Z</time>
      </trkpt>
      <trkpt lat="44.43835" lon="5.00052">
        <ele>287</ele>
        <time>2015-06-19T08:18:00Z</time>
      </trkpt>
      <trkpt lat="44.4385" lon="5.00069">
        <ele>285</ele>
        <time>2015-06-19T08:18:17Z</time>
      </trkpt>
      <trkpt lat="44.43856" lon="5.00071">
        <ele>285</ele>
        <time>2015-06-19T08:18:23Z</time>
      </trkpt>
      <trkpt lat="44.43873" lon="5.00089">
        <ele>285</ele>
        <time>2015-06-19T08:18:41Z</time>
      </trkpt>
      <trkpt lat="44.43878" lon="5.00095">
        <ele>285</ele>
        <time>2015-06-19T08:18:48Z</time>
      </trkpt>
      <trkpt lat="44.43884" lon="5.00103">
        <ele>288</ele>
        <time>2015-06-19T08:18:55Z</time>
      </trkpt>
      <trkpt lat="44.43892" lon="5.00117">
        <ele>286</ele>
        <time>2015-06-19T08:19:08Z</time>
      </trkpt>
      <trkpt lat="44.43894" lon="5.00122">
        <ele>286</ele>
        <time>2015-06-19T08:19:17Z</time>
      </trkpt>
      <trkpt lat="44.43912" lon="5.00147">
        <ele>289</ele>
        <time>2015-06-19T08:19:38Z</time>
      </trkpt>
      <trkpt lat="44.43913" lon="5.00148">
        <ele>289</ele>
        <time>2015-06-19T08:19:39Z</time>
      </trkpt>
      <trkpt lat="44.43932" lon="5.00172">
        <ele>286</ele>
        <time>2015-06-19T08:19:59Z</time>
      </trkpt>
      <trkpt lat="44.43933" lon="5.00174">
        <ele>286</ele>
        <time>2015-06-19T08:20:01Z</time>
      </trkpt>
      <trkpt lat="44.43942" lon="5.00186">
        <ele>289</ele>
        <time>2015-06-19T08:20:12Z</time>
      </trkpt>
      <trkpt lat="44.43954" lon="5.00195">
        <ele>294</ele>
        <time>2015-06-19T08:20:23Z</time>
      </trkpt>
      <trkpt lat="44.43966" lon="5.00208">
        <ele>291</ele>
        <time>2015-06-19T08:20:36Z</time>
      </trkpt>
      <trkpt lat="44.43981" lon="5.00225">
        <ele>292</ele>
        <time>2015-06-19T08:20:54Z</time>
      </trkpt>
      <trkpt lat="44.43983" lon="5.00227">
        <ele>292</ele>
        <time>2015-06-19T08:20:56Z</time>
      </trkpt>
      <trkpt lat="44.43989" lon="5.00233">
        <ele>290</ele>
        <time>2015-06-19T08:21:10Z</time>
      </trkpt>
      <trkpt lat="44.43995" lon="5.00236">
        <ele>292</ele>
        <time>2015-06-19T08:21:18Z</time>
      </trkpt>
      <trkpt lat="44.44011" lon="5.0025">
        <ele>292</ele>
        <time>2015-06-19T08:21:32Z</time>
      </trkpt>
      <trkpt lat="44.44019" lon="5.00259">
        <ele>292</ele>
        <time>2015-06-19T08:21:40Z</time>
      </trkpt>
      <trkpt lat="44.44033" lon="5.00272">
        <ele>289</ele>
        <time>2015-06-19T08:21:51Z</time>
      </trkpt>
      <trkpt lat="44.44042" lon="5.0028">
        <ele>289</ele>
        <time>2015-06-19T08:22:02Z</time>
      </trkpt>
      <trkpt lat="44.44051" lon="5.00288">
        <ele>290</ele>
        <time>2015-06-19T08:22:14Z</time>
      </trkpt>
      <trkpt lat="44.44067" lon="5.00304">
        <ele>291</ele>
        <time>2015-06-19T08:22:28Z</time>
      </trkpt>
      <trkpt lat="44.44069" lon="5.00304">
        <ele>290</ele>
        <time>2015-06-19T08:22:35Z</time>
      </trkpt>
      <trkpt lat="44.4408" lon="5.00315">
        <ele>290</ele>
        <time>2015-06-19T08:22:48Z</time>
      </trkpt>
      <trkpt lat="44.44091" lon="5.00321">
        <ele>290</ele>
        <time>2015-06-19T08:22:59Z</time>
      </trkpt>
      <trkpt lat="44.44107" lon="5.0032">
        <ele>292</ele>
        <time>2015-06-19T08:23:09Z</time>
      </trkpt>
      <trkpt lat="44.44117" lon="5.00308">
        <ele>298</ele>
        <time>2015-06-19T08:23:19Z</time>
      </trkpt>
      <trkpt lat="44.44127" lon="5.00297">
        <ele>297</ele>
        <time>2015-06-19T08:23:30Z</time>
      </trkpt>
      <trkpt lat="44.44139" lon="5.00281">
        <ele>298</ele>
        <time>2015-06-19T08:23:45Z</time>
      </trkpt>
      <trkpt lat="44.44149" lon="5.00264">
        <ele>301</ele>
        <time>2015-06-19T08:24:00Z</time>
      </trkpt>
      <trkpt lat="44.44151" lon="5.0026">
        <ele>300</ele>
        <time>2015-06-19T08:24:03Z</time>
      </trkpt>
      <trkpt lat="44.4416" lon="5.00247">
        <ele>301</ele>
        <time>2015-06-19T08:24:14Z</time>
      </trkpt>
      <trkpt lat="44.44168" lon="5.00233">
        <ele>303</ele>
        <time>2015-06-19T08:24:25Z</time>
      </trkpt>
      <trkpt lat="44.44184" lon="5.00221">
        <ele>304</ele>
        <time>2015-06-19T08:24:44Z</time>
      </trkpt>
      <trkpt lat="44.44188" lon="5.00224">
        <ele>305</ele>
        <time>2015-06-19T08:24:48Z</time>
      </trkpt>
      <trkpt lat="44.44196" lon="5.00237">
        <ele>303</ele>
        <time>2015-06-19T08:24:59Z</time>
      </trkpt>
      <trkpt lat="44.44206" lon="5.00249">
        <ele>302</ele>
        <time>2015-06-19T08:25:11Z</time>
      </trkpt>
      <trkpt lat="44.4421" lon="5.00252">
        <ele>298</ele>
        <time>2015-06-19T08:25:21Z</time>
      </trkpt>
      <trkpt lat="44.44217" lon="5.00264">
        <ele>299</ele>
        <time>2015-06-19T08:25:31Z</time>
      </trkpt>
      <trkpt lat="44.44223" lon="5.00278">
        <ele>298</ele>
        <time>2015-06-19T08:25:42Z</time>
      </trkpt>
      <trkpt lat="44.44228" lon="5.00291">
        <ele>298</ele>
        <time>2015-06-19T08:25:53Z</time>
      </trkpt>
      <trkpt lat="44.44235" lon="5.00305">
        <ele>297</ele>
        <time>2015-06-19T08:26:04Z</time>
      </trkpt>
      <trkpt lat="44.44245" lon="5.00325">
        <ele>297</ele>
        <time>2015-06-19T08:26:20Z</time>
      </trkpt>
      <trkpt lat="44.44255" lon="5.00328">
        <ele>299</ele>
        <time>2015-06-19T08:26:27Z</time>
      </trkpt>
      <trkpt lat="44.44262" lon="5.00341">
        <ele>298</ele>
        <time>2015-06-19T08:26:37Z</time>
      </trkpt>
      <trkpt lat="44.44267" lon="5.00359">
        <ele>298</ele>
        <time>2015-06-19T08:26:50Z</time>
      </trkpt>
      <trkpt lat="44.4427" lon="5.00373">
        <ele>297</ele>
        <time>2015-06-19T08:26:59Z</time>
      </trkpt>
      <trkpt lat="44.44272" lon="5.00389">
        <ele>295</ele>
        <time>2015-06-19T08:27:10Z</time>
      </trkpt>
      <trkpt lat="44.44278" lon="5.00406">
        <ele>295</ele>
        <time>2015-06-19T08:27:22Z</time>
      </trkpt>
      <trkpt lat="44.44285" lon="5.00419">
        <ele>295</ele>
        <time>2015-06-19T08:27:32Z</time>
      </trkpt>
      <trkpt lat="44.44296" lon="5.00417">
        <ele>293</ele>
        <time>2015-06-19T08:27:43Z</time>
      </trkpt>
      <trkpt lat="44.44298" lon="5.00418">
        <ele>294</ele>
        <time>2015-06-19T08:27:54Z</time>
      </trkpt>
      <trkpt lat="44.44301" lon="5.00418">
        <ele>295</ele>
        <time>2015-06-19T08:27:57Z</time>
      </trkpt>
      <trkpt lat="44.44314" lon="5.00416">
        <ele>299</ele>
        <time>2015-06-19T08:28:10Z</time>
      </trkpt>
      <trkpt lat="44.44327" lon="5.0041">
        <ele>294</ele>
        <time>2015-06-19T08:28:23Z</time>
      </trkpt>
      <trkpt lat="44.44336" lon="5.00408">
        <ele>295</ele>
        <time>2015-06-19T08:28:30Z</time>
      </trkpt>
      <trkpt lat="44.44347" lon="5.00405">
        <ele>294</ele>
        <time>2015-06-19T08:28:41Z</time>
      </trkpt>
      <trkpt lat="44.44359" lon="5.00402">
        <ele>294</ele>
        <time>2015-06-19T08:28:52Z</time>
      </trkpt>
      <trkpt lat="44.44373" lon="5.00398">
        <ele>293</ele>
        <time>2015-06-19T08:29:05Z</time>
      </trkpt>
      <trkpt lat="44.44382" lon="5.00393">
        <ele>294</ele>
        <time>2015-06-19T08:29:14Z</time>
      </trkpt>
      <trkpt lat="44.44394" lon="5.00389">
        <ele>297</ele>
        <time>2015-06-19T08:29:25Z</time>
      </trkpt>
      <trkpt lat="44.44414" lon="5.0038">
        <ele>297</ele>
        <time>2015-06-19T08:29:41Z</time>
      </trkpt>
      <trkpt lat="44.44419" lon="5.00376">
        <ele>297</ele>
        <time>2015-06-19T08:29:47Z</time>
      </trkpt>
      <trkpt lat="44.44439" lon="5.00362">
        <ele>297</ele>
        <time>2015-06-19T08:30:08Z</time>
      </trkpt>
      <trkpt lat="44.44448" lon="5.00354">
        <ele>297</ele>
        <time>2015-06-19T08:30:18Z</time>
      </trkpt>
      <trkpt lat="44.44453" lon="5.00351">
        <ele>297</ele>
        <time>2015-06-19T08:30:21Z</time>
      </trkpt>
      <trkpt lat="44.4447" lon="5.0033">
        <ele>298</ele>
        <time>2015-06-19T08:30:39Z</time>
      </trkpt>
      <trkpt lat="44.44478" lon="5.00322">
        <ele>300</ele>
        <time>2015-06-19T08:30:48Z</time>
      </trkpt>
      <trkpt lat="44.44481" lon="5.00317">
        <ele>301</ele>
        <time>2015-06-19T08:30:53Z</time>
      </trkpt>
      <trkpt lat="44.44486" lon="5.00312">
        <ele>300</ele>
        <time>2015-06-19T08:31:04Z</time>
      </trkpt>
      <trkpt lat="44.44491" lon="5.00304">
        <ele>303</ele>
        <time>2015-06-19T08:31:15Z</time>
      </trkpt>
      <trkpt lat="44.44492" lon="5.00303">
        <ele>305</ele>
        <time>2015-06-19T08:31:27Z</time>
      </trkpt>
      <trkpt lat="44.4449" lon="5.00288">
        <ele>305</ele>
        <time>2015-06-19T08:31:39Z</time>
      </trkpt>
      <trkpt lat="44.4449" lon="5.00286">
        <ele>305</ele>
        <time>2015-06-19T08:31:40Z</time>
      </trkpt>
      <trkpt lat="44.44487" lon="5.0027">
        <ele>306</ele>
        <time>2015-06-19T08:31:51Z</time>
      </trkpt>
      <trkpt lat="44.44488" lon="5.00251">
        <ele>307</ele>
        <time>2015-06-19T08:32:05Z</time>
      </trkpt>
      <trkpt lat="44.44489" lon="5.00242">
        <ele>309</ele>
        <time>2015-06-19T08:32:13Z</time>
      </trkpt>
      <trkpt lat="44.44489" lon="5.00226">
        <ele>312</ele>
        <time>2015-06-19T08:32:24Z</time>
      </trkpt>
      <trkpt lat="44.44486" lon="5.0021">
        <ele>315</ele>
        <time>2015-06-19T08:32:35Z</time>
      </trkpt>
      <trkpt lat="44.44485" lon="5.00196">
        <ele>315</ele>
        <time>2015-06-19T08:32:46Z</time>
      </trkpt>
      <trkpt lat="44.44484" lon="5.0018">
        <ele>315</ele>
        <time>2015-06-19T08:32:57Z</time>
      </trkpt>
      <trkpt lat="44.44486" lon="5.00166">
        <ele>316</ele>
        <time>2015-06-19T08:33:08Z</time>
      </trkpt>
      <trkpt lat="44.44487" lon="5.00153">
        <ele>317</ele>
        <time>2015-06-19T08:33:19Z</time>
      </trkpt>
      <trkpt lat="44.44491" lon="5.00139">
        <ele>317</ele>
        <time>2015-06-19T08:33:30Z</time>
      </trkpt>
      <trkpt lat="44.44493" lon="5.00124">
        <ele>317</ele>
        <time>2015-06-19T08:33:41Z</time>
      </trkpt>
      <trkpt lat="44.44497" lon="5.00108">
        <ele>317</ele>
        <time>2015-06-19T08:33:52Z</time>
      </trkpt>
      <trkpt lat="44.44503" lon="5.00091">
        <ele>318</ele>
        <time>2015-06-19T08:34:03Z</time>
      </trkpt>
      <trkpt lat="44.44508" lon="5.00074">
        <ele>318</ele>
        <time>2015-06-19T08:34:14Z</time>
      </trkpt>
      <trkpt lat="44.44511" lon="5.00069">
        <ele>319</ele>
        <time>2015-06-19T08:34:25Z</time>
      </trkpt>
      <trkpt lat="44.4452" lon="5.00073">
        <ele>320</ele>
        <time>2015-06-19T08:34:37Z</time>
      </trkpt>
      <trkpt lat="44.4453" lon="5.00076">
        <ele>322</ele>
        <time>2015-06-19T08:34:47Z</time>
      </trkpt>
      <trkpt lat="44.4454" lon="5.00081">
        <ele>324</ele>
        <time>2015-06-19T08:34:58Z</time>
      </trkpt>
      <trkpt lat="44.44551" lon="5.00087">
        <ele>324</ele>
        <time>2015-06-19T08:35:10Z</time>
      </trkpt>
      <trkpt lat="44.44561" lon="5.00094">
        <ele>323</ele>
        <time>2015-06-19T08:35:20Z</time>
      </trkpt>
      <trkpt lat="44.44571" lon="5.001">
        <ele>323</ele>
        <time>2015-06-19T08:35:31Z</time>
      </trkpt>
      <trkpt lat="44.44577" lon="5.00101">
        <ele>325</ele>
        <time>2015-06-19T08:35:42Z</time>
      </trkpt>
      <trkpt lat="44.44578" lon="5.00103">
        <ele>325</ele>
        <time>2015-06-19T08:35:53Z</time>
      </trkpt>
      <trkpt lat="44.44578" lon="5.00103">
        <ele>325</ele>
        <time>2015-06-19T08:35:56Z</time>
      </trkpt>
      <trkpt lat="44.44578" lon="5.00103">
        <ele>325</ele>
        <time>2015-06-19T08:35:59Z</time>
      </trkpt>
      <trkpt lat="44.44578" lon="5.00103">
        <ele>325</ele>
        <time>2015-06-19T08:36:02Z</time>
      </trkpt>
      <trkpt lat="44.44579" lon="5.00102">
        <ele>325</ele>
        <time>2015-06-19T08:36:05Z</time>
      </trkpt>
      <trkpt lat="44.44582" lon="5.00103">
        <ele>323</ele>
        <time>2015-06-19T08:36:22Z</time>
      </trkpt>
      <trkpt lat="44.44582" lon="5.00103">
        <ele>323</ele>
        <time>2015-06-19T08:36:25Z</time>
      </trkpt>
      <trkpt lat="44.44582" lon="5.00103">
        <ele>323</ele>
        <time>2015-06-19T08:36:28Z</time>
      </trkpt>
      <trkpt lat="44.44582" lon="5.00103">
        <ele>323</ele>
        <time>2015-06-19T08:36:31Z</time>
      </trkpt>
      <trkpt lat="44.44582" lon="5.00103">
        <ele>323</ele>
        <time>2015-06-19T08:36:34Z</time>
      </trkpt>
      <trkpt lat="44.44582" lon="5.00103">
        <ele>323</ele>
        <time>2015-06-19T08:36:37Z</time>
      </trkpt>
      <trkpt lat="44.44582" lon="5.00103">
        <ele>323</ele>
        <time>2015-06-19T08:36:40Z</time>
      </trkpt>
      <trkpt lat="44.44582" lon="5.00104">
        <ele>323</ele>
        <time>2015-06-19T08:36:43Z</time>
      </trkpt>
      <trkpt lat="44.44583" lon="5.00107">
        <ele>321</ele>
        <time>2015-06-19T08:36:57Z</time>
      </trkpt>
      <trkpt lat="44.44583" lon="5.00107">
        <ele>321</ele>
        <time>2015-06-19T08:37:00Z</time>
      </trkpt>
      <trkpt lat="44.44584" lon="5.00107">
        <ele>321</ele>
        <time>2015-06-19T08:37:06Z</time>
      </trkpt>
      <trkpt lat="44.44584" lon="5.00107">
        <ele>321</ele>
        <time>2015-06-19T08:37:09Z</time>
      </trkpt>
      <trkpt lat="44.44584" lon="5.00107">
        <ele>321</ele>
        <time>2015-06-19T08:37:12Z</time>
      </trkpt>
      <trkpt lat="44.44584" lon="5.00107">
        <ele>321</ele>
        <time>2015-06-19T08:37:15Z</time>
      </trkpt>
      <trkpt lat="44.44584" lon="5.00107">
        <ele>321</ele>
        <time>2015-06-19T08:37:18Z</time>
      </trkpt>
      <trkpt lat="44.44584" lon="5.00107">
        <ele>321</ele>
        <time>2015-06-19T08:37:21Z</time>
      </trkpt>
      <trkpt lat="44.44584" lon="5.00107">
        <ele>321</ele>
        <time>2015-06-19T08:37:24Z</time>
      </trkpt>
      <trkpt lat="44.44584" lon="5.00107">
        <ele>321</ele>
        <time>2015-06-19T08:37:27Z</time>
      </trkpt>
      <trkpt lat="44.44584" lon="5.00107">
        <ele>321</ele>
        <time>2015-06-19T08:37:31Z</time>
      </trkpt>
      <trkpt lat="44.44584" lon="5.00107">
        <ele>321</ele>
        <time>2015-06-19T08:37:33Z</time>
      </trkpt>
      <trkpt lat="44.44584" lon="5.00107">
        <ele>321</ele>
        <time>2015-06-19T08:37:37Z</time>
      </trkpt>
      <trkpt lat="44.44584" lon="5.00107">
        <ele>321</ele>
        <time>2015-06-19T08:37:39Z</time>
      </trkpt>
      <trkpt lat="44.44584" lon="5.00107">
        <ele>321</ele>
        <time>2015-06-19T08:37:42Z</time>
      </trkpt>
      <trkpt lat="44.44584" lon="5.00108">
        <ele>321</ele>
        <time>2015-06-19T08:37:47Z</time>
      </trkpt>
      <trkpt lat="44.44584" lon="5.00108">
        <ele>321</ele>
        <time>2015-06-19T08:37:48Z</time>
      </trkpt>
      <trkpt lat="44.44584" lon="5.00108">
        <ele>321</ele>
        <time>2015-06-19T08:37:51Z</time>
      </trkpt>
      <trkpt lat="44.44584" lon="5.00108">
        <ele>321</ele>
        <time>2015-06-19T08:37:54Z</time>
      </trkpt>
      <trkpt lat="44.44584" lon="5.00108">
        <ele>321</ele>
        <time>2015-06-19T08:37:57Z</time>
      </trkpt>
      <trkpt lat="44.44584" lon="5.00108">
        <ele>321</ele>
        <time>2015-06-19T08:38:00Z</time>
      </trkpt>
      <trkpt lat="44.44584" lon="5.00108">
        <ele>321</ele>
        <time>2015-06-19T08:38:05Z</time>
      </trkpt>
      <trkpt lat="44.44584" lon="5.00108">
        <ele>321</ele>
        <time>2015-06-19T08:38:07Z</time>
      </trkpt>
      <trkpt lat="44.44584" lon="5.00108">
        <ele>321</ele>
        <time>2015-06-19T08:38:10Z</time>
      </trkpt>
      <trkpt lat="44.44584" lon="5.00108">
        <ele>321</ele>
        <time>2015-06-19T08:38:12Z</time>
      </trkpt>
      <trkpt lat="44.44584" lon="5.00108">
        <ele>321</ele>
        <time>2015-06-19T08:38:15Z</time>
      </trkpt>
      <trkpt lat="44.44584" lon="5.00108">
        <ele>321</ele>
        <time>2015-06-19T08:38:18Z</time>
      </trkpt>
      <trkpt lat="44.44584" lon="5.00107">
        <ele>321</ele>
        <time>2015-06-19T08:38:22Z</time>
      </trkpt>
      <trkpt lat="44.44583" lon="5.00107">
        <ele>320</ele>
        <time>2015-06-19T08:38:24Z</time>
      </trkpt>
      <trkpt lat="44.44573" lon="5.00106">
        <ele>322</ele>
        <time>2015-06-19T08:38:35Z</time>
      </trkpt>
      <trkpt lat="44.44556" lon="5.00096">
        <ele>321</ele>
        <time>2015-06-19T08:38:52Z</time>
      </trkpt>
      <trkpt lat="44.44552" lon="5.00093">
        <ele>321</ele>
        <time>2015-06-19T08:38:57Z</time>
      </trkpt>
      <trkpt lat="44.44533" lon="5.0008">
        <ele>318</ele>
        <time>2015-06-19T08:39:18Z</time>
      </trkpt>
      <trkpt lat="44.44532" lon="5.00079">
        <ele>318</ele>
        <time>2015-06-19T08:39:19Z</time>
      </trkpt>
      <trkpt lat="44.44517" lon="5.0007">
        <ele>319</ele>
        <time>2015-06-19T08:39:35Z</time>
      </trkpt>
      <trkpt lat="44.44517" lon="5.00046">
        <ele>320</ele>
        <time>2015-06-19T08:39:51Z</time>
      </trkpt>
      <trkpt lat="44.44518" lon="5.00045">
        <ele>321</ele>
        <time>2015-06-19T08:39:53Z</time>
      </trkpt>
      <trkpt lat="44.4452" lon="5.00032">
        <ele>323</ele>
        <time>2015-06-19T08:40:03Z</time>
      </trkpt>
      <trkpt lat="44.44522" lon="5.00019">
        <ele>322</ele>
        <time>2015-06-19T08:40:15Z</time>
      </trkpt>
      <trkpt lat="44.44527" lon="5.00004">
        <ele>322</ele>
        <time>2015-06-19T08:40:26Z</time>
      </trkpt>
      <trkpt lat="44.4453" lon="4.99988">
        <ele>322</ele>
        <time>2015-06-19T08:40:36Z</time>
      </trkpt>
      <trkpt lat="44.44533" lon="4.9997">
        <ele>323</ele>
        <time>2015-06-19T08:40:47Z</time>
      </trkpt>
      <trkpt lat="44.44538" lon="4.99954">
        <ele>324</ele>
        <time>2015-06-19T08:40:58Z</time>
      </trkpt>
      <trkpt lat="44.4454" lon="4.99936">
        <ele>323</ele>
        <time>2015-06-19T08:41:09Z</time>
      </trkpt>
      <trkpt lat="44.44541" lon="4.99917">
        <ele>326</ele>
        <time>2015-06-19T08:41:20Z</time>
      </trkpt>
      <trkpt lat="44.44539" lon="4.99904">
        <ele>325</ele>
        <time>2015-06-19T08:41:31Z</time>
      </trkpt>
      <trkpt lat="44.44536" lon="4.99881">
        <ele>326</ele>
        <time>2015-06-19T08:41:42Z</time>
      </trkpt>
      <trkpt lat="44.44535" lon="4.99862">
        <ele>326</ele>
        <time>2015-06-19T08:41:53Z</time>
      </trkpt>
      <trkpt lat="44.44534" lon="4.99858">
        <ele>326</ele>
        <time>2015-06-19T08:42:04Z</time>
      </trkpt>
      <trkpt lat="44.44534" lon="4.99851">
        <ele>325</ele>
        <time>2015-06-19T08:42:15Z</time>
      </trkpt>
      <trkpt lat="44.44532" lon="4.9983">
        <ele>327</ele>
        <time>2015-06-19T08:42:26Z</time>
      </trkpt>
      <trkpt lat="44.44531" lon="4.99821">
        <ele>324</ele>
        <time>2015-06-19T08:42:37Z</time>
      </trkpt>
      <trkpt lat="44.44529" lon="4.99802">
        <ele>323</ele>
        <time>2015-06-19T08:42:48Z</time>
      </trkpt>
      <trkpt lat="44.44528" lon="4.99784">
        <ele>323</ele>
        <time>2015-06-19T08:42:59Z</time>
      </trkpt>
      <trkpt lat="44.44528" lon="4.99768">
        <ele>323</ele>
        <time>2015-06-19T08:43:10Z</time>
      </trkpt>
      <trkpt lat="44.44526" lon="4.99761">
        <ele>325</ele>
        <time>2015-06-19T08:43:21Z</time>
      </trkpt>
      <trkpt lat="44.44524" lon="4.9975">
        <ele>323</ele>
        <time>2015-06-19T08:43:32Z</time>
      </trkpt>
      <trkpt lat="44.44524" lon="4.99735">
        <ele>322</ele>
        <time>2015-06-19T08:43:43Z</time>
      </trkpt>
      <trkpt lat="44.44523" lon="4.99721">
        <ele>320</ele>
        <time>2015-06-19T08:43:55Z</time>
      </trkpt>
      <trkpt lat="44.44524" lon="4.99706">
        <ele>319</ele>
        <time>2015-06-19T08:44:05Z</time>
      </trkpt>
      <trkpt lat="44.4452" lon="4.99692">
        <ele>318</ele>
        <time>2015-06-19T08:44:16Z</time>
      </trkpt>
      <trkpt lat="44.44513" lon="4.99674">
        <ele>315</ele>
        <time>2015-06-19T08:44:30Z</time>
      </trkpt>
      <trkpt lat="44.44505" lon="4.9966">
        <ele>313</ele>
        <time>2015-06-19T08:44:38Z</time>
      </trkpt>
      <trkpt lat="44.44503" lon="4.99643">
        <ele>314</ele>
        <time>2015-06-19T08:44:49Z</time>
      </trkpt>
      <trkpt lat="44.44503" lon="4.99627">
        <ele>315</ele>
        <time>2015-06-19T08:45:00Z</time>
      </trkpt>
      <trkpt lat="44.44505" lon="4.9961">
        <ele>316</ele>
        <time>2015-06-19T08:45:11Z</time>
      </trkpt>
      <trkpt lat="44.44506" lon="4.99591">
        <ele>317</ele>
        <time>2015-06-19T08:45:22Z</time>
      </trkpt>
      <trkpt lat="44.44507" lon="4.99576">
        <ele>317</ele>
        <time>2015-06-19T08:45:34Z</time>
      </trkpt>
      <trkpt lat="44.4451" lon="4.99559">
        <ele>316</ele>
        <time>2015-06-19T08:45:44Z</time>
      </trkpt>
      <trkpt lat="44.44508" lon="4.99537">
        <ele>317</ele>
        <time>2015-06-19T08:45:55Z</time>
      </trkpt>
      <trkpt lat="44.44508" lon="4.99519">
        <ele>319</ele>
        <time>2015-06-19T08:46:06Z</time>
      </trkpt>
      <trkpt lat="44.4451" lon="4.99503">
        <ele>318</ele>
        <time>2015-06-19T08:46:17Z</time>
      </trkpt>
      <trkpt lat="44.44511" lon="4.99487">
        <ele>318</ele>
        <time>2015-06-19T08:46:28Z</time>
      </trkpt>
      <trkpt lat="44.44512" lon="4.99474">
        <ele>319</ele>
        <time>2015-06-19T08:46:39Z</time>
      </trkpt>
      <trkpt lat="44.44514" lon="4.99461">
        <ele>321</ele>
        <time>2015-06-19T08:46:50Z</time>
      </trkpt>
      <trkpt lat="44.44515" lon="4.99447">
        <ele>320</ele>
        <time>2015-06-19T08:47:01Z</time>
      </trkpt>
      <trkpt lat="44.44517" lon="4.99429">
        <ele>320</ele>
        <time>2015-06-19T08:47:12Z</time>
      </trkpt>
      <trkpt lat="44.4452" lon="4.99411">
        <ele>319</ele>
        <time>2015-06-19T08:47:23Z</time>
      </trkpt>
      <trkpt lat="44.44522" lon="4.99395">
        <ele>318</ele>
        <time>2015-06-19T08:47:34Z</time>
      </trkpt>
      <trkpt lat="44.44525" lon="4.99376">
        <ele>316</ele>
        <time>2015-06-19T08:47:45Z</time>
      </trkpt>
      <trkpt lat="44.44528" lon="4.99358">
        <ele>316</ele>
        <time>2015-06-19T08:47:56Z</time>
      </trkpt>
      <trkpt lat="44.4453" lon="4.99341">
        <ele>316</ele>
        <time>2015-06-19T08:48:07Z</time>
      </trkpt>
      <trkpt lat="44.4453" lon="4.99337">
        <ele>315</ele>
        <time>2015-06-19T08:48:18Z</time>
      </trkpt>
      <trkpt lat="44.44529" lon="4.99334">
        <ele>315</ele>
        <time>2015-06-19T08:48:31Z</time>
      </trkpt>
      <trkpt lat="44.44529" lon="4.99333">
        <ele>314</ele>
        <time>2015-06-19T08:48:32Z</time>
      </trkpt>
      <trkpt lat="44.4453" lon="4.99326">
        <ele>315</ele>
        <time>2015-06-19T08:48:43Z</time>
      </trkpt>
      <trkpt lat="44.44529" lon="4.99298">
        <ele>318</ele>
        <time>2015-06-19T08:49:02Z</time>
      </trkpt>
      <trkpt lat="44.44528" lon="4.99295">
        <ele>317</ele>
        <time>2015-06-19T08:49:06Z</time>
      </trkpt>
      <trkpt lat="44.44533" lon="4.99273">
        <ele>312</ele>
        <time>2015-06-19T08:49:21Z</time>
      </trkpt>
      <trkpt lat="44.44532" lon="4.9926">
        <ele>314</ele>
        <time>2015-06-19T08:49:33Z</time>
      </trkpt>
      <trkpt lat="44.44533" lon="4.9926">
        <ele>314</ele>
        <time>2015-06-19T08:49:38Z</time>
      </trkpt>
      <trkpt lat="44.44537" lon="4.99286">
        <ele>314</ele>
        <time>2015-06-19T08:49:59Z</time>
      </trkpt>
      <trkpt lat="44.44539" lon="4.99292">
        <ele>316</ele>
        <time>2015-06-19T08:50:04Z</time>
      </trkpt>
      <trkpt lat="44.44541" lon="4.99305">
        <ele>320</ele>
        <time>2015-06-19T08:50:14Z</time>
      </trkpt>
      <trkpt lat="44.4454" lon="4.99323">
        <ele>320</ele>
        <time>2015-06-19T08:50:26Z</time>
      </trkpt>
      <trkpt lat="44.44538" lon="4.99329">
        <ele>315</ele>
        <time>2015-06-19T08:50:35Z</time>
      </trkpt>
      <trkpt lat="44.44539" lon="4.99332">
        <ele>317</ele>
        <time>2015-06-19T08:50:52Z</time>
      </trkpt>
      <trkpt lat="44.44538" lon="4.99331">
        <ele>316</ele>
        <time>2015-06-19T08:50:59Z</time>
      </trkpt>
      <trkpt lat="44.44539" lon="4.99331">
        <ele>315</ele>
        <time>2015-06-19T08:51:02Z</time>
      </trkpt>
      <trkpt lat="44.44542" lon="4.99333">
        <ele>314</ele>
        <time>2015-06-19T08:51:05Z</time>
      </trkpt>
      <trkpt lat="44.44544" lon="4.99335">
        <ele>313</ele>
        <time>2015-06-19T08:51:22Z</time>
      </trkpt>
      <trkpt lat="44.44537" lon="4.99331">
        <ele>315</ele>
        <time>2015-06-19T08:51:29Z</time>
      </trkpt>
      <trkpt lat="44.44539" lon="4.99323">
        <ele>314</ele>
        <time>2015-06-19T08:51:39Z</time>
      </trkpt>
      <trkpt lat="44.4454" lon="4.99313">
        <ele>314</ele>
        <time>2015-06-19T08:51:47Z</time>
      </trkpt>
      <trkpt lat="44.44541" lon="4.99293">
        <ele>311</ele>
        <time>2015-06-19T08:51:59Z</time>
      </trkpt>
      <trkpt lat="44.44541" lon="4.99282">
        <ele>312</ele>
        <time>2015-06-19T08:52:09Z</time>
      </trkpt>
      <trkpt lat="44.44541" lon="4.9928">
        <ele>313</ele>
        <time>2015-06-19T08:52:20Z</time>
      </trkpt>
      <trkpt lat="44.44541" lon="4.99275">
        <ele>313</ele>
        <time>2015-06-19T08:52:23Z</time>
      </trkpt>
      <trkpt lat="44.44541" lon="4.99261">
        <ele>310</ele>
        <time>2015-06-19T08:52:34Z</time>
      </trkpt>
      <trkpt lat="44.44539" lon="4.99234">
        <ele>314</ele>
        <time>2015-06-19T08:52:50Z</time>
      </trkpt>
      <trkpt lat="44.44539" lon="4.99227">
        <ele>312</ele>
        <time>2015-06-19T08:52:57Z</time>
      </trkpt>
      <trkpt lat="44.44539" lon="4.99211">
        <ele>313</ele>
        <time>2015-06-19T08:53:08Z</time>
      </trkpt>
      <trkpt lat="44.4454" lon="4.99187">
        <ele>313</ele>
        <time>2015-06-19T08:53:20Z</time>
      </trkpt>
      <trkpt lat="44.44541" lon="4.99186">
        <ele>313</ele>
        <time>2015-06-19T08:53:29Z</time>
      </trkpt>
      <trkpt lat="44.44541" lon="4.99187">
        <ele>312</ele>
        <time>2015-06-19T08:53:32Z</time>
      </trkpt>
      <trkpt lat="44.44541" lon="4.99187">
        <ele>312</ele>
        <time>2015-06-19T08:53:35Z</time>
      </trkpt>
      <trkpt lat="44.44541" lon="4.99187">
        <ele>312</ele>
        <time>2015-06-19T08:53:38Z</time>
      </trkpt>
      <trkpt lat="44.44541" lon="4.99187">
        <ele>312</ele>
        <time>2015-06-19T08:53:42Z</time>
      </trkpt>
      <trkpt lat="44.44541" lon="4.99187">
        <ele>312</ele>
        <time>2015-06-19T08:53:44Z</time>
      </trkpt>
      <trkpt lat="44.44541" lon="4.99187">
        <ele>312</ele>
        <time>2015-06-19T08:53:47Z</time>
      </trkpt>
      <trkpt lat="44.44541" lon="4.99187">
        <ele>312</ele>
        <time>2015-06-19T08:53:50Z</time>
      </trkpt>
      <trkpt lat="44.44541" lon="4.99187">
        <ele>312</ele>
        <time>2015-06-19T08:53:53Z</time>
      </trkpt>
      <trkpt lat="44.44541" lon="4.99186">
        <ele>312</ele>
        <time>2015-06-19T08:53:56Z</time>
      </trkpt>
      <trkpt lat="44.44541" lon="4.99186">
        <ele>312</ele>
        <time>2015-06-19T08:53:59Z</time>
      </trkpt>
      <trkpt lat="44.44541" lon="4.99185">
        <ele>311</ele>
        <time>2015-06-19T08:54:03Z</time>
      </trkpt>
      <trkpt lat="44.4454" lon="4.9917">
        <ele>310</ele>
        <time>2015-06-19T08:54:13Z</time>
      </trkpt>
      <trkpt lat="44.44537" lon="4.99153">
        <ele>308</ele>
        <time>2015-06-19T08:54:25Z</time>
      </trkpt>
      <trkpt lat="44.44539" lon="4.99136">
        <ele>304</ele>
        <time>2015-06-19T08:54:38Z</time>
      </trkpt>
      <trkpt lat="44.44539" lon="4.99123">
        <ele>303</ele>
        <time>2015-06-19T08:54:46Z</time>
      </trkpt>
      <trkpt lat="44.44538" lon="4.99111">
        <ele>305</ele>
        <time>2015-06-19T08:54:57Z</time>
      </trkpt>
      <trkpt lat="44.44537" lon="4.99102">
        <ele>306</ele>
        <time>2015-06-19T08:55:08Z</time>
      </trkpt>
      <trkpt lat="44.44537" lon="4.99092">
        <ele>305</ele>
        <time>2015-06-19T08:55:19Z</time>
      </trkpt>
      <trkpt lat="44.44536" lon="4.99068">
        <ele>304</ele>
        <time>2015-06-19T08:55:30Z</time>
      </trkpt>
      <trkpt lat="44.44537" lon="4.99029">
        <ele>306</ele>
        <time>2015-06-19T08:55:45Z</time>
      </trkpt>
      <trkpt lat="44.44537" lon="4.99014">
        <ele>305</ele>
        <time>2015-06-19T08:55:52Z</time>
      </trkpt>
      <trkpt lat="44.44537" lon="4.9899">
        <ele>305</ele>
        <time>2015-06-19T08:56:03Z</time>
      </trkpt>
      <trkpt lat="44.44537" lon="4.98971">
        <ele>304</ele>
        <time>2015-06-19T08:56:14Z</time>
      </trkpt>
      <trkpt lat="44.44537" lon="4.98952">
        <ele>302</ele>
        <time>2015-06-19T08:56:25Z</time>
      </trkpt>
      <trkpt lat="44.44538" lon="4.98938">
        <ele>303</ele>
        <time>2015-06-19T08:56:36Z</time>
      </trkpt>
      <trkpt lat="44.44537" lon="4.98922">
        <ele>302</ele>
        <time>2015-06-19T08:56:47Z</time>
      </trkpt>
      <trkpt lat="44.44539" lon="4.98905">
        <ele>300</ele>
        <time>2015-06-19T08:56:59Z</time>
      </trkpt>
      <trkpt lat="44.44539" lon="4.98889">
        <ele>301</ele>
        <time>2015-06-19T08:57:09Z</time>
      </trkpt>
      <trkpt lat="44.44539" lon="4.98874">
        <ele>297</ele>
        <time>2015-06-19T08:57:20Z</time>
      </trkpt>
      <trkpt lat="44.44539" lon="4.98858">
        <ele>297</ele>
        <time>2015-06-19T08:57:31Z</time>
      </trkpt>
      <trkpt lat="44.44542" lon="4.9884">
        <ele>297</ele>
        <time>2015-06-19T08:57:42Z</time>
      </trkpt>
      <trkpt lat="44.44545" lon="4.98825">
        <ele>297</ele>
        <time>2015-06-19T08:57:53Z</time>
      </trkpt>
      <trkpt lat="44.44547" lon="4.98812">
        <ele>295</ele>
        <time>2015-06-19T08:58:04Z</time>
      </trkpt>
      <trkpt lat="44.44547" lon="4.98796">
        <ele>294</ele>
        <time>2015-06-19T08:58:15Z</time>
      </trkpt>
      <trkpt lat="44.44552" lon="4.98774">
        <ele>294</ele>
        <time>2015-06-19T08:58:26Z</time>
      </trkpt>
      <trkpt lat="44.44555" lon="4.9875">
        <ele>294</ele>
        <time>2015-06-19T08:58:37Z</time>
      </trkpt>
      <trkpt lat="44.44557" lon="4.98728">
        <ele>294</ele>
        <time>2015-06-19T08:58:48Z</time>
      </trkpt>
      <trkpt lat="44.44558" lon="4.9871">
        <ele>295</ele>
        <time>2015-06-19T08:58:59Z</time>
      </trkpt>
      <trkpt lat="44.4456" lon="4.9869">
        <ele>295</ele>
        <time>2015-06-19T08:59:10Z</time>
      </trkpt>
      <trkpt lat="44.44562" lon="4.98664">
        <ele>295</ele>
        <time>2015-06-19T08:59:25Z</time>
      </trkpt>
      <trkpt lat="44.44561" lon="4.98651">
        <ele>294</ele>
        <time>2015-06-19T08:59:32Z</time>
      </trkpt>
      <trkpt lat="44.44559" lon="4.98635">
        <ele>291</ele>
        <time>2015-06-19T08:59:43Z</time>
      </trkpt>
      <trkpt lat="44.44557" lon="4.98618">
        <ele>290</ele>
        <time>2015-06-19T08:59:54Z</time>
      </trkpt>
      <trkpt lat="44.44557" lon="4.98602">
        <ele>290</ele>
        <time>2015-06-19T09:00:05Z</time>
      </trkpt>
      <trkpt lat="44.44559" lon="4.98587">
        <ele>287</ele>
        <time>2015-06-19T09:00:16Z</time>
      </trkpt>
      <trkpt lat="44.44563" lon="4.98576">
        <ele>285</ele>
        <time>2015-06-19T09:00:27Z</time>
      </trkpt>
      <trkpt lat="44.44565" lon="4.98556">
        <ele>286</ele>
        <time>2015-06-19T09:00:40Z</time>
      </trkpt>
      <trkpt lat="44.44564" lon="4.98538">
        <ele>287</ele>
        <time>2015-06-19T09:00:49Z</time>
      </trkpt>
      <trkpt lat="44.44561" lon="4.98513">
        <ele>292</ele>
        <time>2015-06-19T09:01:00Z</time>
      </trkpt>
      <trkpt lat="44.44556" lon="4.98493">
        <ele>293</ele>
        <time>2015-06-19T09:01:11Z</time>
      </trkpt>
      <trkpt lat="44.44551" lon="4.98473">
        <ele>291</ele>
        <time>2015-06-19T09:01:23Z</time>
      </trkpt>
      <trkpt lat="44.4455" lon="4.98456">
        <ele>291</ele>
        <time>2015-06-19T09:01:33Z</time>
      </trkpt>
      <trkpt lat="44.44542" lon="4.9845">
        <ele>288</ele>
        <time>2015-06-19T09:01:46Z</time>
      </trkpt>
      <trkpt lat="44.44534" lon="4.98432">
        <ele>286</ele>
        <time>2015-06-19T09:02:01Z</time>
      </trkpt>
      <trkpt lat="44.44531" lon="4.98427">
        <ele>285</ele>
        <time>2015-06-19T09:02:06Z</time>
      </trkpt>
      <trkpt lat="44.44531" lon="4.98415">
        <ele>285</ele>
        <time>2015-06-19T09:02:17Z</time>
      </trkpt>
      <trkpt lat="44.44533" lon="4.98401">
        <ele>282</ele>
        <time>2015-06-19T09:02:28Z</time>
      </trkpt>
      <trkpt lat="44.44535" lon="4.98388">
        <ele>281</ele>
        <time>2015-06-19T09:02:39Z</time>
      </trkpt>
      <trkpt lat="44.44536" lon="4.98382">
        <ele>280</ele>
        <time>2015-06-19T09:02:50Z</time>
      </trkpt>
      <trkpt lat="44.44536" lon="4.98374">
        <ele>278</ele>
        <time>2015-06-19T09:03:01Z</time>
      </trkpt>
      <trkpt lat="44.44536" lon="4.98359">
        <ele>280</ele>
        <time>2015-06-19T09:03:12Z</time>
      </trkpt>
      <trkpt lat="44.44536" lon="4.98345">
        <ele>281</ele>
        <time>2015-06-19T09:03:23Z</time>
      </trkpt>
      <trkpt lat="44.44534" lon="4.98333">
        <ele>282</ele>
        <time>2015-06-19T09:03:34Z</time>
      </trkpt>
      <trkpt lat="44.44525" lon="4.98318">
        <ele>282</ele>
        <time>2015-06-19T09:03:45Z</time>
      </trkpt>
      <trkpt lat="44.44508" lon="4.983">
        <ele>290</ele>
        <time>2015-06-19T09:04:02Z</time>
      </trkpt>
      <trkpt lat="44.44504" lon="4.98291">
        <ele>291</ele>
        <time>2015-06-19T09:04:08Z</time>
      </trkpt>
      <trkpt lat="44.44502" lon="4.98276">
        <ele>294</ele>
        <time>2015-06-19T09:04:18Z</time>
      </trkpt>
      <trkpt lat="44.44501" lon="4.98278">
        <ele>288</ele>
        <time>2015-06-19T09:04:29Z</time>
      </trkpt>
      <trkpt lat="44.44501" lon="4.98278">
        <ele>287</ele>
        <time>2015-06-19T09:04:32Z</time>
      </trkpt>
      <trkpt lat="44.44501" lon="4.98278">
        <ele>286</ele>
        <time>2015-06-19T09:04:35Z</time>
      </trkpt>
      <trkpt lat="44.44501" lon="4.98278">
        <ele>286</ele>
        <time>2015-06-19T09:04:38Z</time>
      </trkpt>
      <trkpt lat="44.44501" lon="4.98278">
        <ele>286</ele>
        <time>2015-06-19T09:04:41Z</time>
      </trkpt>
    </trkseg>
  </trk>
</gpx>